VY2121 / EC-MAI 7700 Squawk Report (24th of May, 2022)

Aircraft A320 Reg No. EC-MAI Age 8 years old
Model A320 Jet engines 2 First flight 11-03-14
Registered 01-04-14 Rollout 03-14 Delivered 01-04-14
Construction No. 6045 Line No. N/A Series 214(SL)
ADSHEX 3444CA Airline name Vueling Airlines Owner N/A
Airfield based Barcelona~Cataluna~EC First tracked N/A

Flight history for EC-MAI

Route Flight No Date Playback
Barcelona–El Prat (BCN) - Birmingham (BHX) VY8754 2022-06-28 12:28:00
Nantes Atlantique (NTE) - Barcelona–El Prat (BCN) VY2975 2022-06-28 09:10:00
Barcelona–El Prat (BCN) - Nantes Atlantique (NTE) VY2974 2022-06-28 06:55:00
Banjul Intl (BJL) - Barcelona–El Prat (BCN) VY7575 2022-06-28 05:33:00
Barcelona–El Prat (BCN) - Banjul Intl (BJL) VY7574 2022-06-27 22:23:00
Tenerife Norte (TFN) - Barcelona–El Prat (BCN) VY3211 2022-06-27 14:11:00
Barcelona–El Prat (BCN) - Tenerife Norte (TFN) VY3210 2022-06-27 08:51:00
Cote D Azur (NCE) - Barcelona–El Prat (BCN) VY1518 2022-06-26 21:53:00
Barcelona–El Prat (BCN) - Cote D Azur (NCE) VY1517 2022-06-26 19:38:00
Santiago (SCQ) - Barcelona–El Prat (BCN) VY1677 2022-06-26 16:40:00
Barcelona–El Prat (BCN) - Santiago (SCQ) VY1676 2022-06-26 15:24:00
Schiphol (AMS) - Barcelona–El Prat (BCN) VY8301 2022-06-26 12:04:00
Barcelona–El Prat (BCN) - Schiphol (AMS) VY8300 2022-06-26 09:50:00
Eleftherios Venizelos Intl (ATH) - Barcelona–El Prat (BCN) VY8105 2022-06-26 05:13:00
Barcelona–El Prat (BCN) - Eleftherios Venizelos Intl (ATH) VY8104 2022-06-26 00:59:00
La Palma (SPC) - Barcelona–El Prat (BCN) VY3249 2022-06-25 20:09:00
Barcelona–El Prat (BCN) - La Palma (SPC) VY3248 2022-06-25 17:11:00
Copenhagen Airport (CPH) - Barcelona–El Prat (BCN) VY1871 2022-06-25 11:49:00
Barcelona–El Prat (BCN) - Copenhagen Airport (CPH) VY1870 2022-06-25 09:09:00
Bologna (BLQ) - Barcelona–El Prat (BCN) VY6523 2022-06-25 05:14:00
Time Lat Lon Altitude Heading Speed Vertical Rate
2022-05-24 15:51:57 GMT 36.604477 -4.400883 1,925 312 154 -704
2022-05-24 15:51:47 GMT 36.599789 -4.394356 2,025 312 159 -768
2022-05-24 15:51:40 GMT 36.596344 -4.389506 2,125 312 165 -832
2022-05-24 15:51:30 GMT 36.591293 -4.382458 2,275 312 168 -1024
2022-05-24 15:51:20 GMT 36.586010 -4.375013 2,475 312 169 -1408
2022-05-24 15:51:09 GMT 36.580421 -4.367241 2,600 312 171 -128
2022-05-24 15:51:00 GMT 36.575317 -4.360142 2,600 312 178 -256
2022-05-24 15:50:49 GMT 36.569550 -4.352074 2,625 312 183 -256
2022-05-24 15:50:39 GMT 36.563324 -4.343376 2,675 312 190 -320
2022-05-24 15:50:23 GMT 36.553940 -4.330330 2,750 312 199 -384
2022-05-24 15:50:19 GMT 36.551373 -4.326802 2,775 313 206 -320
2022-05-24 15:50:09 GMT 36.544922 -4.317970 2,825 313 205 -384
2022-05-24 15:49:59 GMT 36.538467 -4.309216 2,900 313 204 -256
2022-05-24 15:49:49 GMT 36.532059 -4.300232 2,925 311 205 -320
2022-05-24 15:49:11 GMT 36.517960 -4.261265 3,075 271 209 -448
2022-05-24 15:49:08 GMT 36.518143 -4.257545 3,150 267 209 -256
2022-05-24 15:48:50 GMT 36.519253 -4.236106 3,225 267 209 -256
2022-05-24 15:48:44 GMT 36.519653 -4.228134 3,250 267 212 -320
2022-05-24 15:48:35 GMT 36.520229 -4.217231 3,300 267 212 -320
2022-05-24 15:47:56 GMT 36.524780 -4.168110 3,750 251 229 -1280
2022-05-24 15:47:45 GMT 36.528145 -4.155462 4,175 246 232 -1024
2022-05-24 15:47:35 GMT 36.532566 -4.143190 4,175 246 232 -1024
2022-05-24 15:47:34 GMT 36.533546 -4.140619 4,225 246 232 -1024
2022-05-24 15:47:31 GMT 36.534382 -4.138339 4,250 246 232 -1024
2022-05-24 15:47:29 GMT 36.535355 -4.135780 4,275 246 233 -832
2022-05-24 15:47:28 GMT 36.535812 -4.134521 4,300 245 235 -704
2022-05-24 15:47:26 GMT 36.536942 -4.131561 4,300 245 235 -640
2022-05-24 15:47:25 GMT 36.537361 -4.130392 4,325 245 236 -640
2022-05-24 15:47:24 GMT 36.537781 -4.129282 4,350 245 237 -576
2022-05-24 15:47:21 GMT 36.539268 -4.125542 4,375 244 238 -576
2022-05-24 15:47:20 GMT 36.539738 -4.124314 4,375 244 239 -576
2022-05-24 15:47:18 GMT 36.540665 -4.122047 4,400 243 241 -704
2022-05-24 15:47:16 GMT 36.541924 -4.119113 4,425 242 241 -704
2022-05-24 15:47:15 GMT 36.542202 -4.118412 4,425 241 243 -768
2022-05-24 15:47:13 GMT 36.543972 -4.114614 4,475 239 245 -768
2022-05-24 15:47:10 GMT 36.545181 -4.112159 4,500 238 246 -832
2022-05-24 15:47:08 GMT 36.546341 -4.109917 4,525 236 248 -832
2022-05-24 15:47:07 GMT 36.547047 -4.108653 4,550 235 249 -832
2022-05-24 15:47:06 GMT 36.548393 -4.106257 4,575 234 251 -832
2022-05-24 15:47:04 GMT 36.549091 -4.105088 4,575 234 251 -768
2022-05-24 15:47:03 GMT 36.550735 -4.102421 4,625 232 252 -768
2022-05-24 15:47:01 GMT 36.551559 -4.101105 4,625 232 253 -768
2022-05-24 15:46:58 GMT 36.553562 -4.098076 4,650 230 255 -768
2022-05-24 15:46:57 GMT 36.555145 -4.095855 4,675 228 257 -768
2022-05-24 15:46:55 GMT 36.555935 -4.094686 4,700 228 258 -768
2022-05-24 15:46:54 GMT 36.557877 -4.092178 4,725 226 259 -768
2022-05-24 15:46:51 GMT 36.558746 -4.091091 4,750 225 260 -768
2022-05-24 15:46:49 GMT 36.560917 -4.088492 4,775 223 263 -768
2022-05-24 15:46:48 GMT 36.562733 -4.086388 4,800 221 264 -768
2022-05-24 15:46:45 GMT 36.566689 -4.082414 4,850 218 267 -832
2022-05-24 15:46:43 GMT 36.566689 -4.082414 4,850 217 268 -832
2022-05-24 15:46:42 GMT 36.568645 -4.080603 4,900 215 269 -832
2022-05-24 15:46:40 GMT 36.569717 -4.079726 4,900 214 270 -896
2022-05-24 15:46:39 GMT 36.571671 -4.078031 4,925 213 271 -896
2022-05-24 15:46:37 GMT 36.572880 -4.077096 4,950 213 271 -960
2022-05-24 15:46:36 GMT 36.576420 -4.074350 5,000 212 273 -1024
2022-05-24 15:46:34 GMT 36.576420 -4.074350 5,000 212 273 -1088
2022-05-24 15:46:33 GMT 36.577011 -4.073868 5,025 211 274 -1152
2022-05-24 15:46:30 GMT 36.580563 -4.071370 5,075 210 275 -1344
2022-05-24 15:46:29 GMT 36.581726 -4.070549 5,100 208 276 -1408
2022-05-24 15:46:28 GMT 36.584290 -4.068947 5,175 206 276 -1536
2022-05-24 15:46:26 GMT 36.585342 -4.068317 5,175 206 277 -1536
2022-05-24 15:46:25 GMT 36.587776 -4.066928 5,250 203 278 -1600
2022-05-24 15:46:23 GMT 36.590103 -4.065701 5,300 202 279 -1536
2022-05-24 15:46:21 GMT 36.591362 -4.065117 5,325 202 279 -1536
2022-05-24 15:46:20 GMT 36.593784 -4.063948 5,375 200 279 -1792
2022-05-24 15:46:18 GMT 36.595001 -4.063396 5,400 200 279 -1920
2022-05-24 15:46:17 GMT 36.596066 -4.062955 5,450 200 278 -2112
2022-05-24 15:46:15 GMT 36.598438 -4.061903 5,525 200 278 -2432
2022-05-24 15:46:12 GMT 36.600952 -4.060822 5,600 200 278 -2688
2022-05-24 15:46:11 GMT 36.602207 -4.060266 5,650 200 278 -2880
2022-05-24 15:46:09 GMT 36.605026 -4.058990 5,750 200 278 -3008
2022-05-24 15:46:08 GMT 36.606258 -4.058455 5,825 200 278 -2944
2022-05-24 15:46:06 GMT 36.608643 -4.057388 5,900 200 278 -3008
2022-05-24 15:46:05 GMT 36.609879 -4.056816 5,950 200 278 -3008
2022-05-24 15:46:03 GMT 36.612259 -4.055786 6,050 200 279 -3008
2022-05-24 15:46:02 GMT 36.613476 -4.055241 6,100 200 279 -3008
2022-05-24 15:46:00 GMT 36.616699 -4.053841 6,225 200 278 -3072
2022-05-24 15:45:59 GMT 36.616699 -4.053841 6,250 200 279 -3072
2022-05-24 15:45:57 GMT 36.619537 -4.052582 6,350 199 280 -2944
2022-05-24 15:45:56 GMT 36.621574 -4.051734 6,425 199 281 -2752
2022-05-24 15:45:54 GMT 36.622925 -4.051151 6,475 199 280 -2560
2022-05-24 15:45:51 GMT 36.626038 -4.049835 6,575 199 283 -2048
2022-05-24 15:45:50 GMT 36.627914 -4.049091 6,625 198 284 -1984
2022-05-24 15:45:49 GMT 36.629349 -4.048520 6,675 198 285 -1792
2022-05-24 15:45:48 GMT 36.630745 -4.047994 6,700 197 286 -1792
2022-05-24 15:45:46 GMT 36.633354 -4.047059 6,750 197 287 -1856
2022-05-24 15:45:45 GMT 36.634506 -4.046631 6,800 196 288 -1920
2022-05-24 15:45:44 GMT 36.637436 -4.045601 6,875 196 289 -1984
2022-05-24 15:45:42 GMT 36.638565 -4.045189 6,900 195 289 -2048
2022-05-24 15:45:41 GMT 36.639816 -4.044800 6,925 195 289 -2112
2022-05-24 15:45:39 GMT 36.642380 -4.043941 7,000 195 290 -2240
2022-05-24 15:45:38 GMT 36.643501 -4.043553 7,050 195 290 -2368
2022-05-24 15:45:36 GMT 36.646435 -4.042618 7,125 195 290 -2624
2022-05-24 15:45:34 GMT 36.650158 -4.041449 7,275 195 289 -3136
2022-05-24 15:45:32 GMT 36.651600 -4.040982 7,325 195 288 -3200
2022-05-24 15:45:30 GMT 36.654255 -4.040105 7,450 195 287 -3520
2022-05-24 15:45:28 GMT 36.656162 -4.039521 7,550 194 286 -3584
2022-05-24 15:45:27 GMT 36.658165 -4.038937 7,600 194 285 -3584
2022-05-24 15:45:26 GMT 36.659592 -4.038506 7,700 194 284 -3584
2022-05-24 15:45:24 GMT 36.661926 -4.037819 7,800 194 282 -3520
2022-05-24 15:45:23 GMT 36.663391 -4.037361 7,875 194 282 -3456
2022-05-24 15:45:21 GMT 36.665428 -4.036774 7,975 194 281 -3392
2022-05-24 15:45:19 GMT 36.667336 -4.036190 8,050 194 280 -3328
2022-05-24 15:45:18 GMT 36.669804 -4.035489 8,175 194 279 -3264
2022-05-24 15:45:17 GMT 36.670502 -4.035255 8,200 194 279 -3264
2022-05-24 15:45:15 GMT 36.673508 -4.034386 8,325 194 278 -3200
2022-05-24 15:45:14 GMT 36.674644 -4.034086 8,375 194 277 -3136
2022-05-24 15:45:12 GMT 36.676830 -4.033443 8,475 194 277 -3008
2022-05-24 15:45:11 GMT 36.678043 -4.033093 8,500 194 276 -2944
2022-05-24 15:45:10 GMT 36.680511 -4.032383 8,600 194 276 -2880
2022-05-24 15:45:08 GMT 36.681793 -4.032040 8,650 194 276 -2816
2022-05-24 15:45:07 GMT 36.684513 -4.031223 8,750 193 276 -2624
2022-05-24 15:45:05 GMT 36.685822 -4.030838 8,800 193 277 -2560
2022-05-24 15:45:04 GMT 36.687149 -4.030495 8,850 193 277 -2432
2022-05-24 15:45:03 GMT 36.689819 -4.029703 8,925 193 277 -2304
2022-05-24 15:45:01 GMT 36.690563 -4.029528 8,950 193 277 -2240
2022-05-24 15:45:00 GMT 36.692230 -4.029007 9,000 193 277 -2240
2022-05-24 15:44:58 GMT 36.694702 -4.028320 9,075 193 278 -2176
2022-05-24 15:44:57 GMT 36.696056 -4.027950 9,100 193 278 -2112
2022-05-24 15:44:55 GMT 36.698456 -4.027348 9,175 193 279 -2048
2022-05-24 15:44:54 GMT 36.699692 -4.027004 9,200 193 280 -1984
2022-05-24 15:44:51 GMT 36.704681 -4.025688 9,325 193 282 -1792
2022-05-24 15:44:49 GMT 36.705917 -4.025345 9,350 193 282 -1792
2022-05-24 15:44:48 GMT 36.708618 -4.024601 9,425 193 283 -1792
2022-05-24 15:44:46 GMT 36.709900 -4.024258 9,450 193 284 -1792
2022-05-24 15:44:45 GMT 36.712372 -4.023628 9,500 193 285 -1728
2022-05-24 15:44:43 GMT 36.713837 -4.023228 9,525 193 285 -1664
2022-05-24 15:44:41 GMT 36.717819 -4.022141 9,600 193 287 -1472
2022-05-24 15:44:40 GMT 36.717819 -4.022141 9,600 193 288 -1408
2022-05-24 15:44:38 GMT 36.719330 -4.021740 9,625 193 289 -1280
2022-05-24 15:44:37 GMT 36.721893 -4.021053 9,650 193 290 -1152
2022-05-24 15:44:35 GMT 36.723991 -4.020470 9,700 193 293 -1088
2022-05-24 15:44:34 GMT 36.725281 -4.020081 9,725 193 295 -1088
2022-05-24 15:44:33 GMT 36.728302 -4.019222 9,775 193 298 -1216
2022-05-24 15:44:31 GMT 36.729855 -4.018834 9,800 193 299 -1408
2022-05-24 15:44:30 GMT 36.731998 -4.018191 9,825 193 301 -1472
2022-05-24 15:44:28 GMT 36.733349 -4.017840 9,850 193 302 -1472
2022-05-24 15:44:27 GMT 36.736588 -4.016876 9,900 193 303 -1472
2022-05-24 15:44:25 GMT 36.738049 -4.016496 9,925 193 304 -1472
2022-05-24 15:44:24 GMT 36.740795 -4.015678 9,975 193 305 -1408
2022-05-24 15:44:21 GMT 36.743217 -4.015035 10,000 193 307 -1280
2022-05-24 15:44:19 GMT 36.746056 -4.014217 10,050 193 308 -1152
2022-05-24 15:44:18 GMT 36.749222 -4.013329 10,075 194 310 -960
2022-05-24 15:44:16 GMT 36.750710 -4.012873 10,100 194 310 -960
2022-05-24 15:44:15 GMT 36.752838 -4.012241 10,125 193 311 -896
2022-05-24 15:44:13 GMT 36.754341 -4.011821 10,150 193 312 -896
2022-05-24 15:44:12 GMT 36.757275 -4.011003 10,175 194 314 -832
2022-05-24 15:44:10 GMT 36.758789 -4.010582 10,200 194 315 -832
2022-05-24 15:44:09 GMT 36.760395 -4.010127 10,200 193 316 -832
2022-05-24 15:44:08 GMT 36.763279 -4.009250 10,225 194 317 -896
2022-05-24 15:44:06 GMT 36.764694 -4.008865 10,250 194 318 -960
2022-05-24 15:44:04 GMT 36.767471 -4.008081 10,275 194 319 -1024
2022-05-24 15:44:03 GMT 36.769135 -4.007607 10,300 193 320 -1024
2022-05-24 15:44:01 GMT 36.772125 -4.006737 10,325 193 321 -1024
2022-05-24 15:43:59 GMT 36.774490 -4.006062 10,375 193 323 -1088
2022-05-24 15:43:58 GMT 36.776367 -4.005547 10,400 193 323 -1152
2022-05-24 15:43:57 GMT 36.779202 -4.004750 10,425 193 325 -1152
2022-05-24 15:43:55 GMT 36.780785 -4.004283 10,450 193 326 -1152
2022-05-24 15:43:54 GMT 36.782227 -4.003874 10,475 193 326 -1152
2022-05-24 15:43:52 GMT 36.785252 -4.003056 10,500 193 328 -1088
2022-05-24 15:43:51 GMT 36.788040 -4.002285 10,550 193 329 -960
2022-05-24 15:43:49 GMT 36.789688 -4.001827 10,550 193 330 -896
2022-05-24 15:43:48 GMT 36.791306 -4.001361 10,575 193 331 -832
2022-05-24 15:43:47 GMT 36.795864 -4.000075 10,625 193 334 -832
2022-05-24 15:43:45 GMT 36.795864 -4.000075 10,625 193 334 -896
2022-05-24 15:43:44 GMT 36.798985 -3.999199 10,650 193 336 -1024
2022-05-24 15:43:42 GMT 36.800537 -3.998795 10,675 193 337 -1088
2022-05-24 15:43:40 GMT 36.803375 -3.997993 10,725 193 340 -1088
2022-05-24 15:43:39 GMT 36.804749 -3.997593 10,725 193 341 -1088
2022-05-24 15:43:37 GMT 36.807724 -3.996792 10,775 193 344 -1088
2022-05-24 15:43:36 GMT 36.809189 -3.996391 10,775 193 345 -1088
2022-05-24 15:43:35 GMT 36.812393 -3.995459 10,825 193 348 -1088
2022-05-24 15:43:33 GMT 36.814114 -3.994991 10,850 193 349 -1152
2022-05-24 15:43:32 GMT 36.817608 -3.993939 10,900 194 353 -1344
2022-05-24 15:43:29 GMT 36.820866 -3.993004 10,950 194 354 -1536
2022-05-24 15:43:27 GMT 36.823982 -3.992128 11,000 194 355 -2048
2022-05-24 15:43:25 GMT 36.827244 -3.991193 11,075 194 356 -2368
2022-05-24 15:43:24 GMT 36.830269 -3.990258 11,175 194 356 -2688
2022-05-24 15:43:22 GMT 36.831894 -3.989811 11,225 194 356 -2752
2022-05-24 15:43:21 GMT 36.835373 -3.988781 11,300 194 356 -2624
2022-05-24 15:43:19 GMT 36.837067 -3.988271 11,350 194 356 -2496
2022-05-24 15:43:17 GMT 36.838882 -3.987745 11,400 194 357 -2368
2022-05-24 15:43:16 GMT 36.841278 -3.987064 11,450 194 357 -2112
2022-05-24 15:43:15 GMT 36.843018 -3.986549 11,500 194 358 -1984
2022-05-24 15:43:13 GMT 36.846268 -3.985577 11,550 194 359 -1856
2022-05-24 15:43:11 GMT 36.849655 -3.984547 11,625 194 360 -1792
2022-05-24 15:43:10 GMT 36.851578 -3.984005 11,650 194 361 -1792
2022-05-24 15:43:08 GMT 36.854599 -3.983070 11,700 194 362 -1856
2022-05-24 15:43:07 GMT 36.856155 -3.982602 11,750 194 362 -1920
2022-05-24 15:43:06 GMT 36.859409 -3.981589 11,825 194 363 -2176
2022-05-24 15:43:04 GMT 36.861179 -3.981051 11,850 194 363 -2304
2022-05-24 15:43:02 GMT 36.864578 -3.980031 11,925 194 363 -2496
2022-05-24 15:43:00 GMT 36.867645 -3.979038 12,025 195 364 -2624
2022-05-24 15:42:58 GMT 36.870956 -3.978006 12,075 195 365 -2624
2022-05-24 15:42:57 GMT 36.872772 -3.977469 12,150 195 365 -2560
2022-05-24 15:42:56 GMT 36.875885 -3.976466 12,225 195 365 -2560
2022-05-24 15:42:54 GMT 36.877533 -3.975940 12,275 195 365 -2560
2022-05-24 15:42:53 GMT 36.880962 -3.974842 12,375 195 366 -2432
2022-05-24 15:42:51 GMT 36.882706 -3.974246 12,400 195 366 -2368
2022-05-24 15:42:50 GMT 36.884216 -3.973778 12,450 196 366 -2240
2022-05-24 15:42:49 GMT 36.887527 -3.972632 12,525 196 366 -1856
2022-05-24 15:42:47 GMT 36.888931 -3.972142 12,550 196 366 -1856
2022-05-24 15:42:45 GMT 36.892136 -3.971032 12,600 197 367 -1856
2022-05-24 15:42:43 GMT 36.895535 -3.969766 12,650 197 367 -1920
2022-05-24 15:42:42 GMT 36.897072 -3.969169 12,700 199 367 -2176
2022-05-24 15:42:41 GMT 36.902115 -3.966999 12,775 200 366 -2240
2022-05-24 15:42:39 GMT 36.902115 -3.966999 12,800 200 366 -2304
2022-05-24 15:42:37 GMT 36.905312 -3.965527 12,875 203 366 -2560
2022-05-24 15:42:35 GMT 36.907745 -3.964370 12,950 203 366 -2624
2022-05-24 15:42:33 GMT 36.910244 -3.963019 13,025 205 365 -2624
2022-05-24 15:42:31 GMT 36.913376 -3.961273 13,100 206 365 -2560
2022-05-24 15:42:30 GMT 36.915039 -3.960332 13,150 206 365 -2432
2022-05-24 15:42:28 GMT 36.919136 -3.957825 13,250 208 366 -2112
2022-05-24 15:42:26 GMT 36.920532 -3.956929 13,275 208 366 -1984
2022-05-24 15:42:24 GMT 36.923538 -3.954903 13,325 209 366 -1792
2022-05-24 15:42:23 GMT 36.925140 -3.953734 13,375 210 366 -1472
2022-05-24 15:42:22 GMT 36.928162 -3.951630 13,400 211 367 -1088
2022-05-24 15:42:20 GMT 36.929611 -3.950600 13,425 211 368 -960
2022-05-24 15:42:19 GMT 36.930916 -3.949645 13,425 211 368 -832
2022-05-24 15:42:17 GMT 36.934479 -3.947072 13,450 210 369 -512
2022-05-24 15:42:16 GMT 36.937527 -3.944868 13,475 210 370 -320
2022-05-24 15:42:13 GMT 36.940155 -3.942981 13,475 210 371 -256
2022-05-24 15:42:11 GMT 36.943039 -3.940995 13,500 210 373 -192
2022-05-24 15:42:10 GMT 36.944599 -3.939853 13,500 210 373 -128
2022-05-24 15:42:08 GMT 36.947578 -3.937763 13,500 210 375 -64
2022-05-24 15:42:07 GMT 36.949116 -3.936688 13,500 210 376 0
2022-05-24 15:42:05 GMT 36.952049 -3.934658 13,500 210 376 64
2022-05-24 15:42:03 GMT 36.955074 -3.932568 13,500 210 376 128
2022-05-24 15:42:02 GMT 36.956680 -3.931469 13,500 210 376 192
2022-05-24 15:42:01 GMT 36.959885 -3.929190 13,500 210 376 192
2022-05-24 15:41:59 GMT 36.961498 -3.928030 13,500 210 377 192
2022-05-24 15:41:58 GMT 36.964783 -3.925742 13,500 210 376 192
2022-05-24 15:41:56 GMT 36.967255 -3.923989 13,475 210 376 192
2022-05-24 15:41:54 GMT 36.968948 -3.922762 13,475 211 376 128
2022-05-24 15:41:53 GMT 36.971741 -3.920746 13,475 211 377 64
2022-05-24 15:41:51 GMT 36.974953 -3.918358 13,475 212 377 64
2022-05-24 15:41:49 GMT 36.976547 -3.917210 13,475 212 377 0
2022-05-24 15:41:48 GMT 36.978256 -3.915909 13,475 213 377 0
2022-05-24 15:41:46 GMT 36.981377 -3.913461 13,475 214 377 -128
2022-05-24 15:41:45 GMT 36.982960 -3.912148 13,475 214 377 -128
2022-05-24 15:41:43 GMT 36.985840 -3.909730 13,475 215 376 -128
2022-05-24 15:41:42 GMT 36.987213 -3.908562 13,500 216 375 -128
2022-05-24 15:41:41 GMT 36.988731 -3.907252 13,500 216 376 -128
2022-05-24 15:41:39 GMT 36.991341 -3.904863 13,500 217 375 -128
2022-05-24 15:41:38 GMT 36.992935 -3.903361 13,500 218 374 -128
2022-05-24 15:41:37 GMT 36.995544 -3.900906 13,500 219 373 -64
2022-05-24 15:41:35 GMT 36.996918 -3.899504 13,500 220 373 -64
2022-05-24 15:41:34 GMT 36.999573 -3.896816 13,500 221 371 -64
2022-05-24 15:41:32 GMT 37.000900 -3.895471 13,500 221 371 -64
2022-05-24 15:41:30 GMT 37.003510 -3.892666 13,500 222 371 0
2022-05-24 15:41:29 GMT 37.004837 -3.891205 13,500 223 370 -64
2022-05-24 15:41:28 GMT 37.005981 -3.889861 13,500 223 370 -64
2022-05-24 15:41:27 GMT 37.008591 -3.886881 13,500 224 369 0
2022-05-24 15:41:25 GMT 37.009735 -3.885537 13,525 225 368 -64
2022-05-24 15:41:24 GMT 37.013260 -3.881271 13,525 225 368 -64
2022-05-24 15:41:22 GMT 37.013260 -3.881271 13,525 226 367 -64
2022-05-24 15:41:21 GMT 37.016098 -3.877648 13,525 226 367 -64
2022-05-24 15:41:19 GMT 37.017334 -3.876129 13,525 226 367 -64
2022-05-24 15:41:18 GMT 37.019691 -3.873099 13,525 226 367 0
2022-05-24 15:41:16 GMT 37.020668 -3.871785 13,525 226 367 0
2022-05-24 15:41:15 GMT 37.022903 -3.868919 13,525 226 367 64
2022-05-24 15:41:13 GMT 37.024158 -3.867307 13,525 226 367 64
2022-05-24 15:41:12 GMT 37.026581 -3.864207 13,500 226 368 128
2022-05-24 15:41:10 GMT 37.027790 -3.862650 13,500 226 368 64
2022-05-24 15:40:59 GMT 37.040497 -3.846349 13,500 225 373 64
2022-05-24 15:40:49 GMT 37.052742 -3.831124 13,500 225 373 64
2022-05-24 15:40:39 GMT 37.065079 -3.815719 13,475 225 374 128
2022-05-24 15:40:24 GMT 37.084351 -3.792095 13,500 225 375 -192
2022-05-24 15:40:14 GMT 37.096115 -3.777602 13,525 225 372 -64
2022-05-24 15:40:09 GMT 37.102833 -3.769326 13,500 225 371 128
2022-05-24 15:39:58 GMT 37.115494 -3.753981 13,500 225 370 0
2022-05-24 15:39:45 GMT 37.131775 -3.733949 13,500 225 369 0
2022-05-24 15:39:38 GMT 37.140106 -3.723781 13,500 225 371 -64
2022-05-24 15:39:26 GMT 37.155109 -3.705497 13,500 225 369 0
2022-05-24 15:39:18 GMT 37.165146 -3.693218 13,500 225 368 0
2022-05-24 15:39:07 GMT 37.178852 -3.676360 13,500 225 369 0
2022-05-24 15:38:57 GMT 37.189930 -3.662746 13,500 225 369 -64
2022-05-24 15:38:47 GMT 37.202362 -3.647222 13,500 226 366 0
2022-05-24 15:38:37 GMT 37.214264 -3.632209 13,475 226 366 64
2022-05-24 15:38:26 GMT 37.227592 -3.615398 13,475 226 365 0
2022-05-24 15:38:17 GMT 37.238480 -3.601587 13,475 226 360 128
2022-05-24 15:38:06 GMT 37.251022 -3.585692 13,450 226 362 64
2022-05-24 15:37:56 GMT 37.263611 -3.569797 13,500 226 368 -768
2022-05-24 15:37:45 GMT 37.276936 -3.553301 13,700 225 367 -1472
2022-05-24 15:37:33 GMT 37.290485 -3.536642 14,050 225 372 -2560
2022-05-24 15:37:25 GMT 37.301285 -3.523163 14,475 225 373 -3072
2022-05-24 15:37:15 GMT 37.312820 -3.508729 15,075 226 375 -4480
2022-05-24 15:37:05 GMT 37.325363 -3.493126 15,900 225 373 -4800
2022-05-24 15:36:54 GMT 37.338806 -3.476516 16,825 225 371 -5312
2022-05-24 15:36:44 GMT 37.350449 -3.462213 17,625 225 369 -4672
2022-05-24 15:36:34 GMT 37.363804 -3.446125 18,550 224 368 -5568
2022-05-24 15:36:25 GMT 37.375031 -3.432818 19,400 224 370 -4672
2022-05-24 15:36:17 GMT 37.384613 -3.421525 20,025 224 371 -4608
2022-05-24 15:36:09 GMT 37.400997 -3.403254 20,775 221 373 -3968
2022-05-24 15:36:04 GMT 37.400997 -3.403254 20,875 219 374 -3904
2022-05-24 15:35:56 GMT 37.412266 -3.392029 21,425 218 376 -4032
2022-05-24 15:35:51 GMT 37.418968 -3.385759 21,750 217 376 -4032
2022-05-24 15:35:48 GMT 37.423996 -3.381222 21,975 217 377 -4160
2022-05-24 15:35:43 GMT 37.430050 -3.375310 22,300 219 375 -4288
2022-05-24 15:35:38 GMT 37.437542 -3.367310 22,700 223 372 -4544
2022-05-24 15:35:34 GMT 37.442291 -3.361757 23,000 225 370 -4736
2022-05-24 15:35:26 GMT 37.451889 -3.349895 23,650 222 366 -5120
2022-05-24 15:35:23 GMT 37.455872 -3.345395 23,925 220 367 -5120
2022-05-24 15:35:17 GMT 37.464157 -3.337682 24,500 207 373 -3392
2022-05-24 15:35:13 GMT 37.469650 -3.333532 24,625 210 371 -3456
2022-05-24 15:35:05 GMT 37.482327 -3.326409 25,050 199 379 -3200
2022-05-24 15:35:01 GMT 37.489075 -3.323782 25,275 197 382 -3200
2022-05-24 15:34:55 GMT 37.498852 -3.321274 25,550 188 391 -3072
2022-05-24 15:34:52 GMT 37.505722 -3.320325 25,775 185 393 -3136
2022-05-24 15:34:47 GMT 37.515003 -3.319961 26,025 177 400 -3008
2022-05-24 15:34:43 GMT 37.523895 -3.320618 26,250 174 403 -2752
2022-05-24 15:34:34 GMT 37.537445 -3.322546 26,575 173 407 -2816
2022-05-24 15:34:31 GMT 37.542797 -3.323364 26,725 173 409 -2560
2022-05-24 15:34:24 GMT 37.556763 -3.325335 26,975 173 413 -1792
2022-05-24 15:34:20 GMT 37.565281 -3.326469 27,100 175 413 -1792
2022-05-24 15:34:14 GMT 37.575569 -3.327305 27,275 179 411 -2240
2022-05-24 15:34:11 GMT 37.581573 -3.327245 27,400 184 407 -2432
2022-05-24 15:34:06 GMT 37.592747 -3.326051 27,650 189 404 -2432
2022-05-24 15:34:03 GMT 37.596542 -3.325351 27,725 190 403 -2368
2022-05-24 15:34:00 GMT 37.602104 -3.323961 27,850 193 401 -2304
2022-05-24 15:33:52 GMT 37.618469 -3.317579 28,175 206 395 -1472
2022-05-24 15:33:45 GMT 37.628174 -3.312086 28,300 208 395 -1344
2022-05-24 15:33:41 GMT 37.634491 -3.307703 28,400 216 397 -896
2022-05-24 15:33:35 GMT 37.644375 -3.299481 28,500 217 397 -896
2022-05-24 15:33:30 GMT 37.650879 -3.292977 28,550 222 398 -1024
2022-05-24 15:33:23 GMT 37.660675 -3.281289 28,700 226 400 -1536
2022-05-24 15:33:19 GMT 37.665207 -3.275445 28,800 227 401 -2112
2022-05-24 15:33:12 GMT 37.674774 -3.262939 29,100 227 403 -2240
2022-05-24 15:33:09 GMT 37.678867 -3.257566 29,200 227 403 -2304
2022-05-24 15:33:04 GMT 37.685528 -3.248908 29,400 227 405 -2304
2022-05-24 15:33:00 GMT 37.690041 -3.242997 29,550 227 405 -2304
2022-05-24 15:32:50 GMT 37.704006 -3.224726 29,950 227 408 -2368
2022-05-24 15:32:42 GMT 37.714157 -3.211471 30,250 227 409 -2304
2022-05-24 15:32:39 GMT 37.717136 -3.207590 30,350 227 409 -2304
2022-05-24 15:32:33 GMT 37.725235 -3.196962 30,650 227 410 -2304
2022-05-24 15:32:30 GMT 37.729797 -3.191002 30,825 227 411 -2304
2022-05-24 15:32:25 GMT 37.735943 -3.182930 30,900 227 412 -2368
2022-05-24 15:32:21 GMT 37.740921 -3.176451 31,100 227 413 -2304
2022-05-24 15:32:18 GMT 37.745766 -3.170033 31,100 227 413 -2304
2022-05-24 15:32:13 GMT 37.752365 -3.161374 31,375 227 414 -2368
2022-05-24 15:32:09 GMT 37.757629 -3.154537 31,550 227 414 -2368
2022-05-24 15:32:02 GMT 37.766098 -3.143434 31,775 227 415 -2304
2022-05-24 15:31:57 GMT 37.773331 -3.133967 32,000 227 417 -2368
2022-05-24 15:31:53 GMT 37.780025 -3.125192 32,175 227 418 -2368
2022-05-24 15:31:50 GMT 37.783100 -3.121132 32,425 227 418 -2304
2022-05-24 15:31:41 GMT 37.794598 -3.106086 32,575 227 421 -2240
2022-05-24 15:31:38 GMT 37.798645 -3.100774 32,700 227 421 -2432
2022-05-24 15:31:32 GMT 37.807297 -3.089320 32,950 227 422 -2112
2022-05-24 15:31:28 GMT 37.812012 -3.083126 33,075 227 422 -1856
2022-05-24 15:31:19 GMT 37.825043 -3.065962 33,375 227 422 -1280
2022-05-24 15:31:12 GMT 37.835098 -3.052707 33,450 227 421 -960
2022-05-24 15:31:08 GMT 37.839382 -3.047034 33,500 227 421 -960
2022-05-24 15:31:01 GMT 37.848999 -3.034389 33,625 227 420 -1024
2022-05-24 15:30:58 GMT 37.853256 -3.028779 33,675 227 420 -1024
2022-05-24 15:30:51 GMT 37.862797 -3.016165 33,800 227 420 -960
2022-05-24 15:30:47 GMT 37.866985 -3.010612 33,850 227 420 -1024
2022-05-24 15:30:40 GMT 37.876297 -2.998312 33,950 227 421 -1024
2022-05-24 15:30:37 GMT 37.880859 -2.992313 34,000 227 420 -1024
2022-05-24 15:30:31 GMT 37.889938 -2.980340 34,125 227 420 -1024
2022-05-24 15:30:27 GMT 37.894363 -2.974431 34,175 227 420 -960
2022-05-24 15:30:20 GMT 37.904228 -2.961413 34,300 227 418 -896
2022-05-24 15:30:17 GMT 37.907394 -2.957173 34,325 227 418 -896
2022-05-24 15:30:11 GMT 37.916100 -2.945709 34,450 227 416 -896
2022-05-24 15:30:07 GMT 37.921326 -2.938784 34,500 227 415 -960
2022-05-24 15:29:59 GMT 37.931076 -2.925811 34,600 227 414 -960
2022-05-24 15:29:56 GMT 37.935093 -2.920572 34,650 227 414 -1024
2022-05-24 15:29:50 GMT 37.944775 -2.907735 34,775 227 413 -1024
2022-05-24 15:29:46 GMT 37.948563 -2.902728 34,825 227 413 -1024
2022-05-24 15:29:39 GMT 37.958038 -2.890164 34,925 227 413 -832
2022-05-24 15:29:36 GMT 37.962112 -2.884788 34,975 227 412 -640
2022-05-24 15:29:29 GMT 37.972008 -2.871671 35,000 227 411 0
2022-05-24 15:29:25 GMT 37.975891 -2.866497 35,000 227 411 -64
2022-05-24 15:29:18 GMT 37.985367 -2.853991 35,025 227 411 -64
2022-05-24 15:29:15 GMT 37.989304 -2.848732 35,025 227 411 -64
2022-05-24 15:29:09 GMT 37.998821 -2.836085 35,025 227 410 -64
2022-05-24 15:29:06 GMT 38.002121 -2.831726 35,025 227 410 0
2022-05-24 15:28:58 GMT 38.012421 -2.818052 35,025 227 411 0
2022-05-24 15:28:55 GMT 38.016037 -2.813260 35,025 227 411 0
2022-05-24 15:28:48 GMT 38.025311 -2.800917 35,025 227 411 0
2022-05-24 15:28:44 GMT 38.029907 -2.794852 35,025 227 412 -64
2022-05-24 15:28:37 GMT 38.041744 -2.779183 35,025 227 412 0
2022-05-24 15:28:34 GMT 38.043793 -2.776496 35,025 227 412 0
2022-05-24 15:28:28 GMT 38.052265 -2.765330 35,025 227 412 128
2022-05-24 15:28:23 GMT 38.058609 -2.756867 35,000 227 412 128
2022-05-24 15:28:17 GMT 38.070465 -2.741206 34,975 227 411 128
2022-05-24 15:28:14 GMT 38.070465 -2.741206 34,975 227 411 128
2022-05-24 15:28:10 GMT 38.074677 -2.735654 34,975 227 412 128
2022-05-24 15:28:07 GMT 38.079300 -2.729460 34,975 227 412 128
2022-05-24 15:28:04 GMT 38.083282 -2.724200 34,950 227 412 64
2022-05-24 15:27:57 GMT 38.092712 -2.711578 34,950 227 411 -64
2022-05-24 15:27:53 GMT 38.097095 -2.705742 34,950 227 411 -64
2022-05-24 15:27:47 GMT 38.106445 -2.693228 34,975 227 410 -64
2022-05-24 15:27:44 GMT 38.112808 -2.684813 34,975 227 410 -64
2022-05-24 15:27:41 GMT 38.112808 -2.684813 34,975 227 409 0
2022-05-24 15:27:36 GMT 38.119953 -2.675290 34,975 227 409 0
2022-05-24 15:27:33 GMT 38.123978 -2.669970 34,975 227 409 0
2022-05-24 15:27:29 GMT 38.129700 -2.662315 34,975 227 408 0
2022-05-24 15:27:26 GMT 38.132938 -2.658035 34,975 227 408 -64
2022-05-24 15:27:23 GMT 38.136841 -2.652789 34,975 227 408 0
2022-05-24 15:27:17 GMT 38.144897 -2.642095 34,975 227 408 0
2022-05-24 15:27:14 GMT 38.148285 -2.637595 34,975 227 408 0
2022-05-24 15:27:11 GMT 38.151672 -2.633037 34,975 227 408 64
2022-05-24 15:27:08 GMT 38.157475 -2.625255 34,975 227 407 0
2022-05-24 15:27:04 GMT 38.161057 -2.620538 34,975 227 407 0
2022-05-24 15:27:01 GMT 38.165817 -2.614103 34,975 227 407 -128
2022-05-24 15:26:55 GMT 38.173141 -2.604344 35,000 227 406 -128
2022-05-24 15:26:52 GMT 38.177490 -2.598500 35,000 227 406 -128
2022-05-24 15:26:47 GMT 38.184082 -2.589735 35,000 227 406 -64
2022-05-24 15:26:43 GMT 38.188522 -2.583716 35,000 227 405 -64
2022-05-24 15:26:39 GMT 38.194111 -2.576234 35,000 227 405 0
2022-05-24 15:26:34 GMT 38.199966 -2.568346 35,000 227 405 64
2022-05-24 15:26:30 GMT 38.205700 -2.560650 35,000 227 405 -64
2022-05-24 15:26:27 GMT 38.209900 -2.555023 35,000 227 405 0
2022-05-24 15:26:23 GMT 38.214066 -2.549471 35,000 227 405 0
2022-05-24 15:26:20 GMT 38.222366 -2.538260 35,000 227 404 0
2022-05-24 15:26:13 GMT 38.226883 -2.532170 35,000 227 405 -64
2022-05-24 15:26:10 GMT 38.231445 -2.526020 35,000 227 404 0
2022-05-24 15:26:04 GMT 38.239265 -2.515571 35,000 227 404 -64
2022-05-24 15:26:00 GMT 38.244061 -2.509122 35,025 227 403 64
2022-05-24 15:25:53 GMT 38.252579 -2.497658 35,025 227 403 0
2022-05-24 15:25:50 GMT 38.257050 -2.491628 35,025 227 403 0
2022-05-24 15:25:46 GMT 38.262543 -2.484224 35,025 227 403 0
2022-05-24 15:25:43 GMT 38.269524 -2.474790 35,025 227 403 -64
2022-05-24 15:25:40 GMT 38.269524 -2.474790 35,025 227 403 -64
2022-05-24 15:25:37 GMT 38.272751 -2.470463 35,025 227 403 -64
2022-05-24 15:25:33 GMT 38.278381 -2.462866 35,025 227 403 64
2022-05-24 15:25:28 GMT 38.285305 -2.453534 35,025 227 403 0
2022-05-24 15:25:23 GMT 38.298203 -2.436160 35,025 227 403 0
2022-05-24 15:25:18 GMT 38.298203 -2.436160 35,025 227 404 0
2022-05-24 15:25:15 GMT 38.302017 -2.431024 35,025 227 404 0
2022-05-24 15:25:11 GMT 38.306305 -2.425290 35,025 227 403 0
2022-05-24 15:25:07 GMT 38.311935 -2.417810 35,025 227 404 0
2022-05-24 15:25:03 GMT 38.317566 -2.410305 35,025 227 403 64
2022-05-24 15:24:59 GMT 38.328739 -2.395557 35,025 227 403 64
2022-05-24 15:24:50 GMT 38.333221 -2.389585 35,025 227 403 64
2022-05-24 15:24:46 GMT 38.338852 -2.382105 35,025 227 403 64
2022-05-24 15:24:42 GMT 38.350479 -2.366560 35,000 228 402 64
2022-05-24 15:24:38 GMT 38.350479 -2.366560 35,025 228 402 128
2022-05-24 15:24:32 GMT 38.356979 -2.357327 35,000 230 402 128
2022-05-24 15:24:28 GMT 38.361744 -2.350358 34,975 231 401 64
2022-05-24 15:24:24 GMT 38.366638 -2.342951 35,000 232 400 0
2022-05-24 15:24:21 GMT 38.369614 -2.338218 35,000 232 400 0
2022-05-24 15:24:17 GMT 38.373848 -2.331490 35,000 232 400 0
2022-05-24 15:24:12 GMT 38.381195 -2.319693 35,000 232 399 0
2022-05-24 15:24:07 GMT 38.385487 -2.312741 35,000 232 399 -64
2022-05-24 15:24:03 GMT 38.390671 -2.304324 35,000 232 398 0
2022-05-24 15:24:00 GMT 38.393372 -2.299999 35,000 232 398 0
2022-05-24 15:23:56 GMT 38.398521 -2.291664 35,000 232 398 -64
2022-05-24 15:23:51 GMT 38.407597 -2.276976 35,000 232 398 0
2022-05-24 15:23:48 GMT 38.407597 -2.276976 35,000 232 398 0
2022-05-24 15:23:44 GMT 38.413696 -2.267005 35,000 232 397 0
2022-05-24 15:23:40 GMT 38.416210 -2.262939 35,000 232 397 0
2022-05-24 15:23:37 GMT 38.420494 -2.256042 35,000 232 397 0
2022-05-24 15:23:33 GMT 38.424866 -2.248913 35,000 232 396 64
2022-05-24 15:23:29 GMT 38.429153 -2.242004 35,000 232 396 0
2022-05-24 15:23:26 GMT 38.432781 -2.236084 35,000 232 396 0
2022-05-24 15:23:20 GMT 38.439789 -2.224731 35,000 232 396 0
2022-05-24 15:23:16 GMT 38.449493 -2.208984 34,975 232 395 64
2022-05-24 15:23:11 GMT 38.449493 -2.208984 34,975 232 395 0
2022-05-24 15:23:07 GMT 38.453636 -2.202271 34,975 232 395 64
2022-05-24 15:23:03 GMT 38.459412 -2.192932 34,975 232 395 64
2022-05-24 15:22:57 GMT 38.465092 -2.183655 34,975 232 395 0
2022-05-24 15:22:50 GMT 38.474075 -2.169128 34,975 232 395 0
2022-05-24 15:22:45 GMT 38.478287 -2.162277 34,975 232 394 -64
2022-05-24 15:22:39 GMT 38.485432 -2.150696 34,975 232 393 -64
2022-05-24 15:22:35 GMT 38.489868 -2.143468 34,975 233 393 0
2022-05-24 15:22:29 GMT 38.497070 -2.131714 34,975 232 392 0
2022-05-24 15:22:25 GMT 38.501400 -2.124695 34,975 232 392 64
2022-05-24 15:22:18 GMT 38.508709 -2.112854 34,975 232 392 0
2022-05-24 15:22:14 GMT 38.513260 -2.105434 34,975 232 392 0
2022-05-24 15:22:09 GMT 38.520081 -2.094388 34,975 232 392 -64
2022-05-24 15:22:03 GMT 38.531612 -2.075562 34,975 232 392 0
2022-05-24 15:21:58 GMT 38.531612 -2.075562 34,975 232 392 0
2022-05-24 15:21:54 GMT 38.535851 -2.068665 34,975 233 391 0
2022-05-24 15:21:51 GMT 38.539761 -2.062317 34,975 232 391 0
2022-05-24 15:21:48 GMT 38.543205 -2.056763 34,975 232 391 64
2022-05-24 15:21:44 GMT 38.547546 -2.049667 34,950 232 391 0
2022-05-24 15:21:39 GMT 38.552700 -2.041260 34,950 232 392 -64
2022-05-24 15:21:36 GMT 38.555923 -2.035993 34,975 233 391 -64
2022-05-24 15:21:33 GMT 38.559814 -2.029664 34,975 233 391 -64
2022-05-24 15:21:29 GMT 38.564667 -2.021790 34,975 233 391 -192
2022-05-24 15:21:26 GMT 38.567551 -2.017066 34,975 233 391 -64
2022-05-24 15:21:23 GMT 38.570393 -2.012390 35,000 233 391 -128
2022-05-24 15:21:20 GMT 38.574490 -2.005737 35,000 232 391 -128
2022-05-24 15:21:17 GMT 38.577141 -2.001404 35,000 232 391 -64
2022-05-24 15:21:13 GMT 38.581467 -1.994377 35,000 233 390 -64
2022-05-24 15:21:09 GMT 38.586456 -1.986197 35,000 232 391 -64
2022-05-24 15:21:05 GMT 38.591152 -1.978516 35,025 233 390 -64
2022-05-24 15:21:02 GMT 38.597900 -1.967448 35,025 233 391 -64
2022-05-24 15:20:58 GMT 38.597900 -1.967448 35,025 233 391 -64
2022-05-24 15:20:55 GMT 38.601536 -1.961548 35,050 233 391 -64
2022-05-24 15:20:52 GMT 38.604630 -1.956462 35,025 233 391 -64
2022-05-24 15:20:48 GMT 38.608982 -1.949341 35,050 233 391 -64
2022-05-24 15:20:45 GMT 38.612915 -1.942908 35,050 233 391 64
2022-05-24 15:20:42 GMT 38.615639 -1.938416 35,050 233 391 -64
2022-05-24 15:20:38 GMT 38.621132 -1.929443 35,050 233 391 -64
2022-05-24 15:20:35 GMT 38.623947 -1.924817 35,050 233 391 0
2022-05-24 15:20:32 GMT 38.627136 -1.919617 35,050 233 392 0
2022-05-24 15:20:29 GMT 38.632214 -1.911316 35,050 233 392 0
2022-05-24 15:20:25 GMT 38.635071 -1.906606 35,050 233 392 0
2022-05-24 15:20:22 GMT 38.638412 -1.901172 35,050 233 392 0
2022-05-24 15:20:17 GMT 38.643539 -1.892694 35,050 233 392 0
2022-05-24 15:20:14 GMT 38.647476 -1.886305 35,050 233 392 64
2022-05-24 15:20:11 GMT 38.650223 -1.881767 35,050 233 392 64
2022-05-24 15:20:07 GMT 38.658920 -1.867437 35,025 233 392 128
2022-05-24 15:20:04 GMT 38.658920 -1.867437 35,025 233 392 64
2022-05-24 15:19:59 GMT 38.664642 -1.858122 35,025 233 393 64
2022-05-24 15:19:54 GMT 38.669781 -1.849670 35,025 233 393 0
2022-05-24 15:19:51 GMT 38.673294 -1.843852 35,025 233 393 64
2022-05-24 15:19:48 GMT 38.676407 -1.838717 35,025 233 393 64
2022-05-24 15:19:44 GMT 38.684464 -1.825522 35,025 233 393 0
2022-05-24 15:19:41 GMT 38.684464 -1.825522 35,025 233 393 64
2022-05-24 15:19:37 GMT 38.688400 -1.819014 35,025 233 392 64
2022-05-24 15:19:34 GMT 38.692932 -1.811550 35,000 233 392 64
2022-05-24 15:19:30 GMT 38.696411 -1.805878 35,000 233 392 64
2022-05-24 15:19:27 GMT 38.700485 -1.799190 35,000 233 392 0
2022-05-24 15:19:23 GMT 38.704323 -1.792908 34,975 233 392 64
2022-05-24 15:19:18 GMT 38.710049 -1.783508 35,025 233 388 0
2022-05-24 15:19:15 GMT 38.714172 -1.776800 35,000 233 392 0
2022-05-24 15:19:12 GMT 38.716099 -1.773560 35,000 233 392 0
2022-05-24 15:19:07 GMT 38.721825 -1.764160 35,000 233 392 0
2022-05-24 15:19:03 GMT 38.726944 -1.755723 35,000 233 390 -64
2022-05-24 15:18:58 GMT 38.735870 -1.740975 35,000 233 389 -64
2022-05-24 15:18:52 GMT 38.738724 -1.736267 35,025 233 388 0
2022-05-24 15:18:49 GMT 38.742096 -1.730765 35,000 233 388 0
2022-05-24 15:18:46 GMT 38.749104 -1.719177 35,000 233 394 0
2022-05-24 15:18:42 GMT 38.749104 -1.719177 35,000 233 387 64
2022-05-24 15:18:39 GMT 38.753082 -1.712673 35,000 233 389 0
2022-05-24 15:18:35 GMT 38.757393 -1.705688 35,000 233 389 0
2022-05-24 15:18:32 GMT 38.760277 -1.700928 35,000 233 389 0
2022-05-24 15:18:29 GMT 38.764435 -1.694044 35,000 233 390 -64
2022-05-24 15:18:26 GMT 38.768471 -1.687500 35,000 233 390 0
2022-05-24 15:18:23 GMT 38.771347 -1.682699 35,000 233 391 0
2022-05-24 15:18:18 GMT 38.775604 -1.675714 35,000 233 391 0
2022-05-24 15:18:15 GMT 38.779503 -1.669373 35,000 233 391 0
2022-05-24 15:18:12 GMT 38.783020 -1.663593 35,000 233 392 0
2022-05-24 15:18:06 GMT 38.790985 -1.650517 35,000 233 394 0
2022-05-24 15:18:02 GMT 38.793777 -1.645919 35,000 233 394 64
2022-05-24 15:17:56 GMT 38.801197 -1.633667 35,000 233 394 64
2022-05-24 15:17:52 GMT 38.805542 -1.626514 34,975 233 395 64
2022-05-24 15:17:46 GMT 38.812592 -1.614811 34,975 233 394 0
2022-05-24 15:17:42 GMT 38.816986 -1.607467 34,975 233 395 0
2022-05-24 15:17:35 GMT 38.824081 -1.595585 35,000 233 393 -64
2022-05-24 15:17:30 GMT 38.829781 -1.586060 35,000 233 391 -64
2022-05-24 15:17:26 GMT 38.835114 -1.577195 35,000 233 388 0
2022-05-24 15:17:21 GMT 38.839188 -1.570388 35,000 233 388 0
2022-05-24 15:17:15 GMT 38.846725 -1.557800 35,025 233 388 -512
2022-05-24 15:17:12 GMT 38.849846 -1.552612 35,025 233 388 -320
2022-05-24 15:17:05 GMT 38.857269 -1.540176 35,125 233 388 -640
2022-05-24 15:17:02 GMT 38.861622 -1.532898 35,125 233 388 -768
2022-05-24 15:16:54 GMT 38.868759 -1.521069 35,250 233 387 -704
2022-05-24 15:16:51 GMT 38.872280 -1.515259 35,250 233 387 -704
2022-05-24 15:16:44 GMT 38.879700 -1.503037 35,375 233 388 -768
2022-05-24 15:16:41 GMT 38.883690 -1.496521 35,375 233 388 -768
2022-05-24 15:16:35 GMT 38.890949 -1.484619 35,450 232 388 -768
2022-05-24 15:16:30 GMT 38.894897 -1.478199 35,475 232 388 -768
2022-05-24 15:16:24 GMT 38.906124 -1.459900 35,700 232 388 -768
2022-05-24 15:16:21 GMT 38.906124 -1.459900 35,625 232 387 -768
2022-05-24 15:16:13 GMT 38.914181 -1.446716 35,725 232 387 -768
2022-05-24 15:16:10 GMT 38.917465 -1.441358 35,750 233 388 -768
2022-05-24 15:16:03 GMT 38.925888 -1.427566 35,850 233 389 -768
2022-05-24 15:16:00 GMT 38.929214 -1.422058 36,000 233 389 -704
2022-05-24 15:15:54 GMT 38.936417 -1.410310 36,025 232 389 -768
2022-05-24 15:15:49 GMT 38.940399 -1.403802 36,000 232 389 -768
2022-05-24 15:15:44 GMT 38.947998 -1.391323 36,100 232 389 -768
2022-05-24 15:15:40 GMT 38.951797 -1.385113 36,150 232 389 -768
2022-05-24 15:15:33 GMT 38.959057 -1.373230 36,225 233 390 -768
2022-05-24 15:15:29 GMT 38.970089 -1.355042 36,350 233 390 -704
2022-05-24 15:15:23 GMT 38.970089 -1.355042 36,350 233 390 -704
2022-05-24 15:15:19 GMT 38.974651 -1.347412 36,425 233 390 -640
2022-05-24 15:15:12 GMT 38.982285 -1.334778 36,450 233 391 -704
2022-05-24 15:15:09 GMT 38.985542 -1.329346 36,525 233 391 -704
2022-05-24 15:15:02 GMT 38.992813 -1.317165 36,575 233 393 -768
2022-05-24 15:14:58 GMT 38.996948 -1.310181 36,625 233 393 -768
2022-05-24 15:14:53 GMT 39.003799 -1.298536 36,700 234 395 -832
2022-05-24 15:14:48 GMT 39.008217 -1.290894 36,750 234 395 -832
2022-05-24 15:14:42 GMT 39.015152 -1.278748 36,900 234 397 -832
2022-05-24 15:14:38 GMT 39.019363 -1.271369 36,900 234 397 -768
2022-05-24 15:14:30 GMT 39.028374 -1.255615 36,975 234 398 -448
2022-05-24 15:14:27 GMT 39.030560 -1.251770 37,000 234 398 -256
2022-05-24 15:14:20 GMT 39.039452 -1.236145 37,000 234 398 0
2022-05-24 15:14:17 GMT 39.041779 -1.232056 37,000 234 398 0
2022-05-24 15:14:13 GMT 39.046692 -1.223363 37,025 234 399 0
2022-05-24 15:14:08 GMT 39.052441 -1.213379 37,000 234 399 64
2022-05-24 15:14:00 GMT 39.060772 -1.198853 37,025 234 399 0
2022-05-24 15:13:57 GMT 39.064171 -1.192932 37,000 234 399 0
2022-05-24 15:13:51 GMT 39.070454 -1.181946 37,025 234 400 0
2022-05-24 15:13:47 GMT 39.075165 -1.173686 37,025 234 400 -64
2022-05-24 15:13:39 GMT 39.083725 -1.158580 37,025 235 400 0
2022-05-24 15:13:36 GMT 39.086285 -1.154053 37,025 235 400 0
2022-05-24 15:13:31 GMT 39.092560 -1.142936 37,025 235 400 64
2022-05-24 15:13:27 GMT 39.097221 -1.134705 37,025 235 400 64
2022-05-24 15:13:19 GMT 39.105324 -1.120361 37,000 235 400 64
2022-05-24 15:13:16 GMT 39.108170 -1.115351 37,000 235 401 64
2022-05-24 15:13:09 GMT 39.116318 -1.100842 37,000 235 401 0
2022-05-24 15:13:06 GMT 39.119431 -1.095349 37,000 235 401 0
2022-05-24 15:12:59 GMT 39.127666 -1.080750 37,000 235 401 0
2022-05-24 15:12:55 GMT 39.130920 -1.074929 37,000 235 401 0
2022-05-24 15:12:50 GMT 39.136978 -1.064209 37,000 235 401 0
2022-05-24 15:12:46 GMT 39.141914 -1.055481 37,000 235 400 64
2022-05-24 15:12:42 GMT 39.150059 -1.040894 37,000 235 401 0
2022-05-24 15:12:38 GMT 39.150059 -1.040894 37,000 235 401 0
2022-05-24 15:12:35 GMT 39.152760 -1.036133 36,975 235 400 64
2022-05-24 15:12:32 GMT 39.157883 -1.027102 36,975 235 400 64
2022-05-24 15:12:28 GMT 39.160629 -1.022206 36,975 235 400 0
2022-05-24 15:12:25 GMT 39.164108 -1.016056 36,975 235 400 64
2022-05-24 15:12:19 GMT 39.170471 -1.004712 36,975 235 400 0
2022-05-24 15:12:15 GMT 39.175106 -0.996521 36,975 235 400 0
2022-05-24 15:12:12 GMT 39.178528 -0.990441 36,975 235 400 64
2022-05-24 15:12:07 GMT 39.183655 -0.981366 36,975 235 400 64
2022-05-24 15:12:04 GMT 39.186401 -0.976529 36,975 235 400 0
2022-05-24 15:11:58 GMT 39.193634 -0.963513 36,975 235 401 0
2022-05-24 15:11:54 GMT 39.197170 -0.957214 36,975 235 400 0
2022-05-24 15:11:51 GMT 39.200245 -0.951721 36,975 235 401 0
2022-05-24 15:11:47 GMT 39.204853 -0.943420 36,975 235 401 0
2022-05-24 15:11:42 GMT 39.210903 -0.932617 36,975 235 401 -64
2022-05-24 15:11:37 GMT 39.216492 -0.922607 36,975 235 401 -64
2022-05-24 15:11:34 GMT 39.219284 -0.917664 36,975 235 400 0
2022-05-24 15:11:31 GMT 39.222839 -0.911328 36,975 235 400 -64
2022-05-24 15:11:27 GMT 39.226547 -0.904760 36,975 235 399 0
2022-05-24 15:11:22 GMT 39.233459 -0.892400 36,975 235 399 0
2022-05-24 15:11:17 GMT 39.238083 -0.884220 36,950 235 399 0
2022-05-24 15:11:14 GMT 39.241814 -0.877502 36,975 235 399 -64
2022-05-24 15:11:10 GMT 39.246323 -0.869532 36,975 235 399 -64
2022-05-24 15:11:07 GMT 39.248978 -0.864815 36,975 235 399 -64
2022-05-24 15:11:01 GMT 39.255081 -0.853882 37,000 235 399 -64
2022-05-24 15:10:57 GMT 39.259689 -0.845708 37,000 234 399 0
2022-05-24 15:10:51 GMT 39.266052 -0.834424 37,000 234 399 0
2022-05-24 15:10:46 GMT 39.271049 -0.825500 37,000 234 398 0
2022-05-24 15:10:42 GMT 39.274960 -0.818665 37,000 234 399 0
2022-05-24 15:10:36 GMT 39.281616 -0.806885 37,000 234 399 -64
2022-05-24 15:10:33 GMT 39.286102 -0.798957 37,000 234 399 -64
2022-05-24 15:10:27 GMT 39.292557 -0.787476 37,000 235 399 0
2022-05-24 15:10:22 GMT 39.297592 -0.778537 37,000 235 399 0
2022-05-24 15:10:19 GMT 39.300385 -0.773521 37,025 235 399 64
2022-05-24 15:10:16 GMT 39.303818 -0.767431 37,000 235 399 0
2022-05-24 15:10:12 GMT 39.308338 -0.759277 37,000 235 399 0
2022-05-24 15:10:06 GMT 39.314804 -0.747667 37,000 235 399 0
2022-05-24 15:10:00 GMT 39.320812 -0.736816 37,000 235 400 0
2022-05-24 15:09:55 GMT 39.325699 -0.727964 37,000 235 399 0
2022-05-24 15:09:52 GMT 39.330505 -0.719366 37,000 235 399 0
2022-05-24 15:09:49 GMT 39.332729 -0.715393 37,000 235 399 0
2022-05-24 15:09:45 GMT 39.336781 -0.708130 37,000 235 399 -64
2022-05-24 15:09:40 GMT 39.342819 -0.697274 37,025 235 400 -128
2022-05-24 15:09:35 GMT 39.347580 -0.688855 37,025 235 400 -128
2022-05-24 15:09:30 GMT 39.353714 -0.677928 37,025 234 399 -128
2022-05-24 15:09:25 GMT 39.358662 -0.669189 37,025 234 399 0
2022-05-24 15:09:18 GMT 39.366165 -0.655955 37,050 235 398 64
2022-05-24 15:09:15 GMT 39.369644 -0.649719 37,050 235 398 -64
2022-05-24 15:09:10 GMT 39.375046 -0.640133 37,025 235 398 64
2022-05-24 15:09:04 GMT 39.380817 -0.629761 37,025 235 398 0
2022-05-24 15:08:54 GMT 39.392166 -0.609323 37,050 235 399 -64
2022-05-24 15:08:46 GMT 39.401642 -0.592306 37,050 235 399 -64
2022-05-24 15:08:43 GMT 39.403725 -0.588501 37,050 235 399 -64
2022-05-24 15:08:34 GMT 39.413864 -0.570214 37,050 235 398 64
2022-05-24 15:08:24 GMT 39.424667 -0.550749 37,050 235 397 0
2022-05-24 15:08:16 GMT 39.432724 -0.536255 37,050 235 397 64
2022-05-24 15:08:13 GMT 39.435699 -0.530926 37,050 235 397 0
2022-05-24 15:08:06 GMT 39.443943 -0.516052 37,050 235 396 0
2022-05-24 15:08:03 GMT 39.447155 -0.510193 37,050 235 397 -64
2022-05-24 15:07:52 GMT 39.457863 -0.490906 37,050 235 397 0
2022-05-24 15:07:45 GMT 39.466782 -0.474800 37,050 235 397 128
2022-05-24 15:07:42 GMT 39.468842 -0.471099 37,050 235 397 128
2022-05-24 15:07:36 GMT 39.475693 -0.458679 37,025 235 396 64
2022-05-24 15:07:32 GMT 39.479462 -0.451782 37,025 235 396 64
2022-05-24 15:07:22 GMT 39.490215 -0.432190 37,000 235 395 64
2022-05-24 15:07:17 GMT 39.496922 -0.420044 37,000 235 395 0
2022-05-24 15:07:12 GMT 39.501205 -0.412286 37,000 235 394 0
2022-05-24 15:07:06 GMT 39.507580 -0.400757 37,000 235 393 0
2022-05-24 15:07:02 GMT 39.512562 -0.391724 37,000 235 391 -64
2022-05-24 15:06:55 GMT 39.519077 -0.380005 37,000 235 388 64
2022-05-24 15:06:51 GMT 39.523224 -0.372520 37,000 235 388 64
2022-05-24 15:06:46 GMT 39.528854 -0.362370 37,000 235 388 64
2022-05-24 15:06:41 GMT 39.534073 -0.352876 37,000 235 388 64
2022-05-24 15:06:33 GMT 39.541534 -0.339382 37,000 235 389 0
2022-05-24 15:06:30 GMT 39.544739 -0.333531 37,000 235 389 0
2022-05-24 15:06:26 GMT 39.549820 -0.324395 37,000 235 386 0
2022-05-24 15:06:23 GMT 39.552567 -0.319380 37,000 235 387 0
2022-05-24 15:06:20 GMT 39.555405 -0.314245 37,000 235 388 0
2022-05-24 15:06:13 GMT 39.563416 -0.299736 37,000 235 386 64
2022-05-24 15:06:10 GMT 39.566238 -0.294617 37,000 235 386 64
2022-05-24 15:06:03 GMT 39.577271 -0.274597 37,000 235 386 0
2022-05-24 15:06:00 GMT 39.577271 -0.274597 37,000 235 386 0
2022-05-24 15:05:52 GMT 39.584335 -0.261761 37,000 235 385 0
2022-05-24 15:05:49 GMT 39.587372 -0.256165 37,000 235 385 0
2022-05-24 15:05:42 GMT 39.596031 -0.240479 37,025 235 386 0
2022-05-24 15:05:39 GMT 39.598034 -0.236755 37,025 235 386 -64
2022-05-24 15:05:32 GMT 39.605621 -0.223011 37,025 235 395 0
2022-05-24 15:05:29 GMT 39.608692 -0.217346 37,025 235 387 0
2022-05-24 15:05:22 GMT 39.616512 -0.203247 37,000 235 390 64
2022-05-24 15:05:19 GMT 39.619213 -0.198303 37,000 235 390 64
2022-05-24 15:05:08 GMT 39.636623 -0.166809 36,975 235 396 64
2022-05-24 15:04:58 GMT 39.641277 -0.158386 36,975 235 396 0
2022-05-24 15:04:51 GMT 39.648743 -0.144793 36,975 235 395 0
2022-05-24 15:04:48 GMT 39.651894 -0.139038 36,975 235 395 0
2022-05-24 15:04:42 GMT 39.657852 -0.128296 36,975 235 394 0
2022-05-24 15:04:38 GMT 39.663578 -0.117859 36,975 235 394 0
2022-05-24 15:04:33 GMT 39.667328 -0.111057 36,975 235 394 0
2022-05-24 15:04:27 GMT 39.673958 -0.099060 37,000 235 394 -64
2022-05-24 15:04:23 GMT 39.678268 -0.091234 37,000 235 394 0
2022-05-24 15:04:20 GMT 39.680756 -0.086670 37,000 235 394 0
2022-05-24 15:04:17 GMT 39.685776 -0.077621 37,000 235 393 -64
2022-05-24 15:04:12 GMT 39.690033 -0.069859 37,000 235 393 64
2022-05-24 15:04:09 GMT 39.692505 -0.065321 37,000 235 393 -64
2022-05-24 15:04:05 GMT 39.696579 -0.057917 37,000 235 393 -64
2022-05-24 15:03:59 GMT 39.703285 -0.045593 37,000 235 393 0
2022-05-24 15:03:56 GMT 39.707943 -0.037109 37,000 235 393 0
2022-05-24 15:03:49 GMT 39.713882 -0.026272 37,000 235 393 64
2022-05-24 15:03:46 GMT 39.716446 -0.021495 37,000 235 393 64
2022-05-24 15:03:43 GMT 39.721252 -0.012658 37,000 235 393 64
2022-05-24 15:03:38 GMT 39.725555 -0.004777 37,000 235 393 64
2022-05-24 15:03:35 GMT 39.729218 0.002075 37,000 235 393 64
2022-05-24 15:03:27 GMT 39.740295 0.022400 36,975 235 393 64
2022-05-24 15:03:24 GMT 39.740295 0.022400 36,975 235 393 64
2022-05-24 15:03:16 GMT 39.748398 0.037198 36,975 235 393 0
2022-05-24 15:03:13 GMT 39.751785 0.043468 36,975 235 393 -64
2022-05-24 15:03:07 GMT 39.757736 0.054394 37,000 235 392 -64
2022-05-24 15:03:04 GMT 39.762039 0.062276 37,000 235 392 -64
2022-05-24 15:03:00 GMT 39.765610 0.068844 37,000 235 391 0
2022-05-24 15:02:51 GMT 39.780190 0.095703 37,000 235 391 0
2022-05-24 15:02:43 GMT 39.783356 0.101501 37,000 235 391 0
2022-05-24 15:02:37 GMT 39.790108 0.113892 37,000 235 391 0
2022-05-24 15:02:33 GMT 39.793831 0.120728 37,000 235 391 -64
2022-05-24 15:02:21 GMT 39.815277 0.160078 37,000 235 391 0
2022-05-24 15:02:12 GMT 39.815277 0.160078 37,000 235 391 0
2022-05-24 15:02:09 GMT 39.818893 0.166706 37,000 235 391 0
2022-05-24 15:02:05 GMT 39.826229 0.180176 37,000 235 391 0
2022-05-24 15:02:02 GMT 39.826229 0.180176 37,000 235 391 0
2022-05-24 15:01:54 GMT 39.834274 0.195007 37,000 235 391 0
2022-05-24 15:01:51 GMT 39.836891 0.199829 37,000 235 391 0
2022-05-24 15:01:44 GMT 39.844807 0.214478 37,000 235 391 -64
2022-05-24 15:01:39 GMT 39.858166 0.239136 37,000 235 391 0
2022-05-24 15:01:32 GMT 39.858166 0.239136 37,000 236 390 0
2022-05-24 15:01:25 GMT 39.864731 0.251282 37,000 235 391 0
2022-05-24 15:01:21 GMT 39.868313 0.257874 37,000 235 391 0
2022-05-24 15:01:15 GMT 39.875839 0.271792 37,000 235 391 0
2022-05-24 15:01:11 GMT 39.879364 0.278300 37,000 235 392 -64
2022-05-24 15:01:01 GMT 39.890148 0.298279 37,000 235 392 0
2022-05-24 15:00:49 GMT 39.906921 0.329172 37,000 235 392 64
2022-05-24 15:00:43 GMT 39.908478 0.332098 37,000 235 392 0
2022-05-24 15:00:39 GMT 39.912025 0.338684 37,000 235 392 0
2022-05-24 15:00:30 GMT 39.925690 0.363831 37,000 235 390 0
2022-05-24 15:00:19 GMT 39.938187 0.386841 37,000 235 388 0
2022-05-24 15:00:10 GMT 39.947205 0.403503 37,000 235 387 0
2022-05-24 15:00:01 GMT 39.951462 0.411377 37,000 236 385 -128
2022-05-24 14:59:57 GMT 39.955505 0.418916 37,025 235 383 -64
2022-05-24 14:59:51 GMT 39.961533 0.430115 37,025 236 381 0
2022-05-24 14:59:47 GMT 39.965794 0.438142 37,025 236 381 64
2022-05-24 14:59:41 GMT 39.971802 0.449378 37,000 236 381 64
2022-05-24 14:59:38 GMT 39.974594 0.454559 37,000 236 381 64
2022-05-24 14:59:29 GMT 39.989090 0.481628 36,975 236 384 128
2022-05-24 14:59:21 GMT 39.992111 0.487244 36,950 236 385 448
2022-05-24 14:59:18 GMT 39.995087 0.492798 36,575 236 385 896
2022-05-24 14:59:10 GMT 40.002777 0.507263 36,825 236 385 1024
2022-05-24 14:59:07 GMT 40.005890 0.513062 36,575 236 384 1024
2022-05-24 14:59:00 GMT 40.013744 0.527781 36,625 236 385 1024
2022-05-24 14:58:57 GMT 40.016922 0.533691 36,525 236 385 1024
2022-05-24 14:58:54 GMT 40.019485 0.538574 36,525 236 385 1024
2022-05-24 14:58:50 GMT 40.023891 0.546820 36,450 236 385 1024
2022-05-24 14:58:46 GMT 40.027431 0.553436 36,400 236 385 1024
2022-05-24 14:58:41 GMT 40.033108 0.564110 36,300 236 385 960
2022-05-24 14:58:38 GMT 40.036285 0.570068 36,225 236 386 960
2022-05-24 14:58:31 GMT 40.046795 0.589641 36,100 236 386 1088
2022-05-24 14:58:28 GMT 40.046795 0.589641 36,100 236 386 1088
2022-05-24 14:58:20 GMT 40.054092 0.603333 35,925 236 387 1280
2022-05-24 14:58:17 GMT 40.058575 0.611614 35,850 236 390 1856
2022-05-24 14:58:07 GMT 40.075378 0.642950 35,350 236 390 1856
2022-05-24 14:58:00 GMT 40.075378 0.642950 35,350 236 394 1920
2022-05-24 14:57:56 GMT 40.079178 0.649963 35,275 236 394 1920
2022-05-24 14:57:50 GMT 40.086506 0.663612 35,050 235 397 1920
2022-05-24 14:57:46 GMT 40.089523 0.669189 34,875 235 399 1792
2022-05-24 14:57:43 GMT 40.092773 0.675232 34,875 235 399 1792
2022-05-24 14:57:38 GMT 40.097675 0.684336 34,525 235 401 1728
2022-05-24 14:57:35 GMT 40.101402 0.691202 34,625 235 401 1728
2022-05-24 14:57:26 GMT 40.111458 0.709929 34,400 236 405 1024
2022-05-24 14:57:19 GMT 40.118729 0.723572 34,275 236 404 896
2022-05-24 14:57:16 GMT 40.122395 0.730466 34,250 236 404 768
2022-05-24 14:57:08 GMT 40.130493 0.745544 34,150 236 403 1152
2022-05-24 14:57:05 GMT 40.133614 0.751377 34,075 236 403 1152
2022-05-24 14:56:58 GMT 40.140923 0.765048 33,925 236 404 1024
2022-05-24 14:56:55 GMT 40.144089 0.770978 33,900 236 404 1024
2022-05-24 14:56:48 GMT 40.154938 0.791328 33,750 236 406 960
2022-05-24 14:56:45 GMT 40.154938 0.791328 33,725 236 406 1024
2022-05-24 14:56:38 GMT 40.162674 0.805908 33,625 236 407 1024
2022-05-24 14:56:33 GMT 40.167786 0.815548 33,375 236 407 1024
2022-05-24 14:56:28 GMT 40.173836 0.826846 33,375 236 406 1024
2022-05-24 14:56:24 GMT 40.177422 0.833588 33,375 236 406 960
2022-05-24 14:56:15 GMT 40.198696 0.873725 33,200 236 406 1024
2022-05-24 14:56:04 GMT 40.198696 0.873725 32,900 236 406 1088
2022-05-24 14:55:57 GMT 40.206528 0.888489 32,900 236 406 1088
2022-05-24 14:55:54 GMT 40.209728 0.894512 32,850 236 406 1024
2022-05-24 14:55:51 GMT 40.212101 0.899006 32,825 236 406 768
2022-05-24 14:55:46 GMT 40.219345 0.912659 32,725 236 406 832
2022-05-24 14:55:43 GMT 40.220490 0.914856 32,700 236 405 1216
2022-05-24 14:55:35 GMT 40.229233 0.931216 32,550 236 405 1216
2022-05-24 14:55:32 GMT 40.232353 0.937084 32,475 236 405 1216
2022-05-24 14:55:22 GMT 40.243294 0.957558 32,275 236 405 960
2022-05-24 14:55:13 GMT 40.253815 0.977097 32,125 235 404 960
2022-05-24 14:55:03 GMT 40.263962 0.995886 31,875 235 404 1344
2022-05-24 14:54:52 GMT 40.275742 1.017639 31,675 235 405 1408
2022-05-24 14:54:42 GMT 40.286179 1.036926 31,500 235 406 1600
2022-05-24 14:54:32 GMT 40.297153 1.057434 31,225 236 407 1536
2022-05-24 14:54:23 GMT 40.307999 1.078221 30,975 237 407 1152
2022-05-24 14:54:15 GMT 40.315292 1.092651 30,850 238 406 896
2022-05-24 14:54:12 GMT 40.318474 1.099070 30,700 237 405 960
2022-05-24 14:54:04 GMT 40.326572 1.115612 30,700 237 405 960
2022-05-24 14:54:01 GMT 40.329323 1.121167 30,650 237 405 1024
2022-05-24 14:53:55 GMT 40.335983 1.134399 30,525 237 404 1152
2022-05-24 14:53:52 GMT 40.339188 1.140686 30,500 236 405 1088
2022-05-24 14:53:44 GMT 40.347931 1.157104 30,350 236 404 1088
2022-05-24 14:53:41 GMT 40.350174 1.161255 30,300 236 404 1088
2022-05-24 14:53:34 GMT 40.359394 1.178970 30,075 237 404 1280
2022-05-24 14:53:31 GMT 40.360882 1.181904 30,100 237 404 1344
2022-05-24 14:53:21 GMT 40.372101 1.202379 29,900 231 405 1088
2022-05-24 14:53:11 GMT 40.385136 1.220668 29,725 223 407 768
2022-05-24 14:53:04 GMT 40.395611 1.232341 29,600 216 408 832
2022-05-24 14:53:01 GMT 40.399429 1.236084 29,600 216 408 832
2022-05-24 14:52:54 GMT 40.410740 1.245700 29,500 210 409 896
2022-05-24 14:52:51 GMT 40.416142 1.249632 29,450 208 410 1024
2022-05-24 14:52:44 GMT 40.427826 1.256873 29,325 203 413 1344
2022-05-24 14:52:41 GMT 40.433456 1.259807 29,250 200 415 1280
2022-05-24 14:52:31 GMT 40.453522 1.267173 29,050 191 421 960
2022-05-24 14:52:26 GMT 40.460495 1.268738 28,975 186 424 960
2022-05-24 14:52:24 GMT 40.465393 1.269545 28,950 186 424 1024
2022-05-24 14:52:20 GMT 40.473175 1.270386 28,850 183 422 1152
2022-05-24 14:52:17 GMT 40.479546 1.270856 28,800 183 426 1152
2022-05-24 14:52:10 GMT 40.492905 1.271729 28,700 183 425 1024
2022-05-24 14:52:03 GMT 40.507004 1.272644 28,575 183 424 1024
2022-05-24 14:51:59 GMT 40.513294 1.273103 28,500 183 423 1024
2022-05-24 14:51:51 GMT 40.529682 1.274164 28,325 183 422 1088
2022-05-24 14:51:48 GMT 40.535248 1.274475 28,225 183 421 896
2022-05-24 14:51:40 GMT 40.552773 1.275600 28,175 183 419 704
2022-05-24 14:51:36 GMT 40.558266 1.275975 28,150 184 417 768
2022-05-24 14:51:29 GMT 40.572189 1.276978 28,000 184 414 896
2022-05-24 14:51:26 GMT 40.577408 1.277344 28,000 184 414 896
2022-05-24 14:51:19 GMT 40.592014 1.278659 27,825 186 410 1088
2022-05-24 14:51:16 GMT 40.596905 1.279221 27,825 186 410 1088
2022-05-24 14:51:10 GMT 40.608261 1.281006 27,725 191 405 1152
2022-05-24 14:51:07 GMT 40.614624 1.282532 27,600 192 404 1216
2022-05-24 14:51:04 GMT 40.619385 1.283936 27,600 192 404 1216
2022-05-24 14:51:01 GMT 40.626480 1.286438 27,525 203 397 1408
2022-05-24 14:50:58 GMT 40.629135 1.287537 27,475 199 400 1408
2022-05-24 14:50:49 GMT 40.646946 1.297136 27,125 209 394 1088
2022-05-24 14:50:41 GMT 40.658707 1.306030 27,125 209 394 1088
2022-05-24 14:50:38 GMT 40.662403 1.309308 27,075 217 389 1024
2022-05-24 14:50:33 GMT 40.670689 1.317735 26,975 222 386 1216
2022-05-24 14:50:27 GMT 40.677532 1.325975 26,850 227 385 1600
2022-05-24 14:50:22 GMT 40.683792 1.334717 26,725 230 384 1600
2022-05-24 14:50:17 GMT 40.689651 1.343811 26,575 230 384 1536
2022-05-24 14:50:09 GMT 40.699905 1.359802 26,300 230 383 1344
2022-05-24 14:50:05 GMT 40.703568 1.365540 26,300 230 383 1344
2022-05-24 14:49:59 GMT 40.710342 1.376160 26,175 230 382 1408
2022-05-24 14:49:56 GMT 40.712494 1.379471 26,125 230 382 1408
2022-05-24 14:49:52 GMT 40.718311 1.388584 26,000 231 381 1536
2022-05-24 14:49:47 GMT 40.723759 1.397136 25,875 231 381 1600
2022-05-24 14:49:40 GMT 40.732883 1.411493 25,675 231 380 1536
2022-05-24 14:49:37 GMT 40.735023 1.414802 25,625 231 379 1536
2022-05-24 14:49:32 GMT 40.746643 1.432983 25,350 231 379 1792
2022-05-24 14:49:27 GMT 40.746643 1.432983 25,325 231 379 1728
2022-05-24 14:49:22 GMT 40.753418 1.443665 25,150 231 379 1536
2022-05-24 14:49:17 GMT 40.757996 1.450867 25,050 231 378 1536
2022-05-24 14:49:10 GMT 40.765797 1.463117 24,850 231 376 1408
2022-05-24 14:49:07 GMT 40.769707 1.469297 24,800 231 376 1472
2022-05-24 14:49:03 GMT 40.773376 1.475037 24,725 231 375 1600
2022-05-24 14:48:59 GMT 40.777817 1.482056 24,600 231 375 1664
2022-05-24 14:48:56 GMT 40.781391 1.487649 24,550 231 375 1664
2022-05-24 14:48:51 GMT 40.786697 1.495972 24,400 231 374 1536
2022-05-24 14:48:46 GMT 40.792648 1.505310 24,250 230 373 1600
2022-05-24 14:48:41 GMT 40.798149 1.513991 24,125 230 372 1600
2022-05-24 14:48:36 GMT 40.803688 1.522605 24,000 231 371 1536
2022-05-24 14:48:30 GMT 40.809460 1.531656 23,850 230 371 1664
2022-05-24 14:48:26 GMT 40.814301 1.539246 23,750 230 370 1728
2022-05-24 14:48:23 GMT 40.818329 1.545593 23,625 230 370 1920
2022-05-24 14:48:20 GMT 40.821285 1.550196 23,525 230 370 1984
2022-05-24 14:48:17 GMT 40.824921 1.555786 23,425 230 369 1984
2022-05-24 14:48:15 GMT 40.826019 1.557495 23,150 233 368 1792
2022-05-24 14:48:11 GMT 40.831787 1.566528 23,225 230 369 2048
2022-05-24 14:48:08 GMT 40.837578 1.575539 23,075 230 369 2048
2022-05-24 14:48:05 GMT 40.837578 1.575539 23,050 230 369 1984
2022-05-24 14:47:58 GMT 40.845383 1.587708 22,700 230 369 1984
2022-05-24 14:47:55 GMT 40.848862 1.593140 22,700 231 369 1920
2022-05-24 14:47:50 GMT 40.853806 1.601135 22,550 233 368 1792
2022-05-24 14:47:47 GMT 40.857605 1.607727 22,450 234 368 1664
2022-05-24 14:47:45 GMT 40.859550 1.611182 21,925 237 363 1792
2022-05-24 14:47:40 GMT 40.863972 1.619672 22,275 237 366 1536
2022-05-24 14:47:36 GMT 40.867493 1.626648 22,175 237 364 1536
2022-05-24 14:47:34 GMT 40.869049 1.629784 22,150 237 364 1600
2022-05-24 14:47:31 GMT 40.872166 1.635902 22,000 237 364 1728
2022-05-24 14:47:28 GMT 40.875275 1.642029 21,925 237 363 1792
2022-05-24 14:47:25 GMT 40.878124 1.647700 21,775 237 362 1856
2022-05-24 14:47:22 GMT 40.881386 1.654254 21,750 237 362 1856
2022-05-24 14:47:18 GMT 40.885109 1.661620 21,625 237 362 1856
2022-05-24 14:47:14 GMT 40.887810 1.666926 21,475 237 361 1792
2022-05-24 14:47:11 GMT 40.890976 1.673218 21,300 237 360 1792
2022-05-24 14:47:06 GMT 40.895256 1.681720 21,300 237 360 1792
2022-05-24 14:47:03 GMT 40.897980 1.687134 21,200 237 359 1856
2022-05-24 14:47:00 GMT 40.901634 1.694391 21,075 237 359 2112
2022-05-24 14:46:56 GMT 40.904518 1.700072 20,950 237 359 2240
2022-05-24 14:46:53 GMT 40.907089 1.705139 20,850 237 359 2304
2022-05-24 14:46:50 GMT 40.909782 1.710496 20,750 237 359 2304
2022-05-24 14:46:47 GMT 40.913410 1.717737 20,550 237 359 2432
2022-05-24 14:46:44 GMT 40.916153 1.723145 20,475 237 359 2496
2022-05-24 14:46:39 GMT 40.920502 1.731812 20,275 237 360 2432
2022-05-24 14:46:36 GMT 40.923157 1.737061 20,150 237 360 2240
2022-05-24 14:46:34 GMT 40.924942 1.740540 20,025 237 360 1920
2022-05-24 14:46:30 GMT 40.928448 1.747575 19,950 237 360 1984
2022-05-24 14:46:27 GMT 40.931808 1.754272 19,750 237 360 1920
2022-05-24 14:46:24 GMT 40.934143 1.758850 19,750 237 360 1920
2022-05-24 14:46:19 GMT 40.938904 1.768433 19,600 237 358 1728
2022-05-24 14:46:16 GMT 40.941605 1.773804 19,500 237 357 1600
2022-05-24 14:46:14 GMT 40.943619 1.777771 19,450 237 357 1664
2022-05-24 14:46:09 GMT 40.948242 1.786987 19,325 237 355 1664
2022-05-24 14:46:06 GMT 40.951027 1.792519 19,225 237 354 1600
2022-05-24 14:46:04 GMT 40.952610 1.795703 19,100 237 352 1408
2022-05-24 14:46:01 GMT 40.955448 1.801383 19,100 237 352 1408
2022-05-24 14:45:58 GMT 40.958103 1.806627 19,050 237 351 1344
2022-05-24 14:45:54 GMT 40.961639 1.813743 18,950 237 348 1216
2022-05-24 14:45:46 GMT 40.968670 1.827788 18,825 237 343 1088
2022-05-24 14:45:42 GMT 40.972321 1.835022 18,750 237 341 1152
2022-05-24 14:45:39 GMT 40.975800 1.841980 18,675 237 337 1088
2022-05-24 14:45:36 GMT 40.977608 1.845578 18,625 237 335 1280
2022-05-24 14:45:34 GMT 40.979843 1.850073 18,500 237 334 1600
2022-05-24 14:45:28 GMT 40.983891 1.858125 18,425 237 333 2112
2022-05-24 14:45:24 GMT 40.987976 1.866333 18,300 237 331 1984
2022-05-24 14:45:21 GMT 40.989662 1.869673 18,200 237 331 1664
2022-05-24 14:45:18 GMT 40.992691 1.875666 18,125 237 329 1536
2022-05-24 14:45:14 GMT 40.997856 1.885903 18,050 237 326 1088
2022-05-24 14:45:12 GMT 40.997856 1.885903 18,000 237 325 960
2022-05-24 14:45:08 GMT 41.001118 1.892457 17,950 237 321 896
2022-05-24 14:45:05 GMT 41.003265 1.896729 17,900 237 319 960
2022-05-24 14:45:02 GMT 41.005913 1.901883 17,850 237 315 896
2022-05-24 14:44:58 GMT 41.009262 1.908562 17,800 237 312 704
2022-05-24 14:44:54 GMT 41.011684 1.913431 17,750 237 310 832
2022-05-24 14:44:51 GMT 41.014568 1.919174 17,700 237 306 1152
2022-05-24 14:44:44 GMT 41.019562 1.929138 17,525 237 303 1664
2022-05-24 14:44:41 GMT 41.022217 1.934448 17,425 237 300 2304
2022-05-24 14:44:38 GMT 41.026886 1.943848 17,300 237 300 2368
2022-05-24 14:44:35 GMT 41.026886 1.943848 17,050 237 300 2560
2022-05-24 14:44:31 GMT 41.032837 1.955750 16,950 237 300 2304
2022-05-24 14:44:28 GMT 41.032837 1.955750 16,875 237 300 2112
2022-05-24 14:44:25 GMT 41.038055 1.966064 16,375 237 287 2944
2022-05-24 14:44:20 GMT 41.038055 1.966064 16,700 237 297 1472
2022-05-24 14:44:17 GMT 41.040665 1.971252 16,600 237 294 1344
2022-05-24 14:44:14 GMT 41.042633 1.975220 16,550 237 292 1472
2022-05-24 14:44:11 GMT 41.045433 1.980785 16,425 237 290 1856
2022-05-24 14:44:07 GMT 41.048401 1.986694 16,325 237 288 1984
2022-05-24 14:44:04 GMT 41.050041 1.989961 16,200 237 287 2496
2022-05-24 14:44:01 GMT 41.052704 1.995300 16,025 237 287 2816
2022-05-24 14:43:58 GMT 41.057465 2.004883 15,850 237 287 3264
2022-05-24 14:43:55 GMT 41.057465 2.004883 15,700 237 288 3328
2022-05-24 14:43:51 GMT 41.060375 2.010748 15,475 237 289 3456
2022-05-24 14:43:45 GMT 41.064472 2.019050 15,175 237 290 3520
2022-05-24 14:43:42 GMT 41.069828 2.029787 14,850 237 292 3392
2022-05-24 14:43:37 GMT 41.069828 2.029787 14,650 237 293 3264
2022-05-24 14:43:34 GMT 41.072525 2.035217 14,575 237 294 3200
2022-05-24 14:43:31 GMT 41.074814 2.039856 14,350 237 295 3136
2022-05-24 14:43:28 GMT 41.077087 2.044393 14,250 237 295 3008
2022-05-24 14:43:24 GMT 41.080441 2.051197 13,975 237 296 2560
2022-05-24 14:43:20 GMT 41.082642 2.055603 13,875 237 296 2176
2022-05-24 14:43:17 GMT 41.085564 2.061560 13,775 237 293 1728
2022-05-24 14:43:13 GMT 41.088226 2.066895 13,725 237 292 1664
2022-05-24 14:43:09 GMT 41.091202 2.072876 13,600 237 289 1344
2022-05-24 14:43:06 GMT 41.093399 2.077271 13,525 237 285 1088
2022-05-24 14:43:03 GMT 41.095615 2.081784 13,500 237 282 1088
2022-05-24 14:43:00 GMT 41.098572 2.087646 13,400 237 275 832
2022-05-24 14:42:57 GMT 41.099575 2.089650 13,375 237 273 896
2022-05-24 14:42:54 GMT 41.101715 2.093894 13,350 237 270 1024
2022-05-24 14:42:50 GMT 41.104740 2.099824 13,225 237 265 1600
2022-05-24 14:42:47 GMT 41.106743 2.103757 13,150 236 262 2048
2022-05-24 14:42:44 GMT 41.108688 2.107544 13,075 237 261 2240
2022-05-24 14:42:39 GMT 41.112049 2.114244 12,850 237 260 2944
2022-05-24 14:42:36 GMT 41.114227 2.118469 12,700 237 260 2688
2022-05-24 14:42:33 GMT 41.116333 2.122681 12,525 237 259 2304
2022-05-24 14:42:30 GMT 41.118382 2.126728 12,450 237 258 2176
2022-05-24 14:42:27 GMT 41.120106 2.130162 12,375 237 256 2112
2022-05-24 14:42:24 GMT 41.124619 2.139160 12,125 237 254 2048
2022-05-24 14:42:22 GMT 41.124619 2.139160 12,125 237 254 2048
2022-05-24 14:42:18 GMT 41.126083 2.142090 11,975 237 251 2112
2022-05-24 14:42:14 GMT 41.128738 2.147461 11,900 237 251 2112
2022-05-24 14:42:10 GMT 41.131622 2.153259 11,750 238 247 2112
2022-05-24 14:42:04 GMT 41.134781 2.159790 11,550 238 245 2304
2022-05-24 14:42:00 GMT 41.137466 2.165305 11,350 238 243 2880
2022-05-24 14:41:57 GMT 41.139423 2.169300 11,200 238 243 3136
2022-05-24 14:41:54 GMT 41.141144 2.172852 11,050 238 244 3456
2022-05-24 14:41:50 GMT 41.143333 2.177415 10,825 238 244 3712
2022-05-24 14:41:47 GMT 41.144821 2.180661 10,675 238 246 4032
2022-05-24 14:41:44 GMT 41.147232 2.185669 10,400 239 248 4416
2022-05-24 14:41:41 GMT 41.149246 2.190002 10,150 238 253 4416
2022-05-24 14:41:34 GMT 41.153595 2.198730 9,700 234 257 3392
2022-05-24 14:41:32 GMT 41.155064 2.201261 9,600 227 257 3008
2022-05-24 14:41:28 GMT 41.157486 2.204756 9,350 220 257 2624
2022-05-24 14:41:24 GMT 41.162140 2.209688 9,250 214 258 2048
2022-05-24 14:41:19 GMT 41.166843 2.213246 9,075 206 257 2368
2022-05-24 14:41:13 GMT 41.173233 2.216797 8,825 201 256 2944
2022-05-24 14:41:10 GMT 41.176758 2.218552 8,675 201 256 2880
2022-05-24 14:41:07 GMT 41.179829 2.220050 8,450 201 254 2816
2022-05-24 14:41:03 GMT 41.184345 2.222235 8,350 201 254 2880
2022-05-24 14:40:59 GMT 41.189419 2.224669 8,125 200 254 2816
2022-05-24 14:40:53 GMT 41.195145 2.227416 7,900 200 252 2880
2022-05-24 14:40:51 GMT 41.197941 2.228664 7,750 200 251 3072
2022-05-24 14:40:48 GMT 41.201614 2.230408 7,575 200 251 3200
2022-05-24 14:40:43 GMT 41.206413 2.232659 7,350 200 249 3328
2022-05-24 14:40:38 GMT 41.212555 2.235655 7,025 201 250 3456
2022-05-24 14:40:33 GMT 41.217491 2.238152 6,750 202 250 3520
2022-05-24 14:40:29 GMT 41.222076 2.240540 6,500 202 249 3904
2022-05-24 14:40:26 GMT 41.225876 2.242554 6,250 202 250 4096
2022-05-24 14:40:23 GMT 41.228710 2.244020 6,075 202 252 4160
2022-05-24 14:40:19 GMT 41.233200 2.246399 5,775 202 254 3648
2022-05-24 14:40:16 GMT 41.235489 2.247620 5,575 202 254 3264
2022-05-24 14:40:13 GMT 41.239883 2.249939 5,475 201 255 2944
2022-05-24 14:40:08 GMT 41.244724 2.252197 5,275 198 253 2176
2022-05-24 14:40:05 GMT 41.251099 2.254272 5,175 191 250 1216
2022-05-24 14:40:02 GMT 41.251099 2.254272 5,150 187 247 1024
2022-05-24 14:39:56 GMT 41.258423 2.254639 5,075 174 238 192
2022-05-24 14:39:52 GMT 41.262314 2.253906 5,075 166 231 448
2022-05-24 14:39:48 GMT 41.266434 2.252380 5,000 151 222 704
2022-05-24 14:39:45 GMT 41.270142 2.250122 4,975 148 221 704
2022-05-24 14:39:42 GMT 41.271698 2.248901 4,950 144 219 704
2022-05-24 14:39:38 GMT 41.276009 2.244207 4,700 125 212 2048
2022-05-24 14:39:35 GMT 41.276962 2.242859 4,725 125 212 2048
2022-05-24 14:39:32 GMT 41.278839 2.239807 4,725 122 211 2048
2022-05-24 14:39:28 GMT 41.281128 2.234344 4,600 117 212 1920
2022-05-24 14:39:25 GMT 41.281998 2.231323 4,450 102 212 1664
2022-05-24 14:39:22 GMT 41.282639 2.227539 4,400 97 211 1728
2022-05-24 14:39:17 GMT 41.283051 2.221069 4,250 90 210 2240
2022-05-24 14:39:12 GMT 41.283005 2.214417 4,050 88 209 2368
2022-05-24 14:39:06 GMT 41.282913 2.207458 3,825 90 206 2304
2022-05-24 14:39:02 GMT 41.282990 2.201822 3,650 91 205 2304
2022-05-24 14:38:56 GMT 41.283142 2.194885 3,450 92 202 2240
2022-05-24 14:38:52 GMT 41.283417 2.189148 3,275 94 200 2304
2022-05-24 14:38:48 GMT 41.283737 2.184143 3,000 95 198 2368
2022-05-24 14:38:45 GMT 41.283966 2.180603 3,000 95 198 2368
2022-05-24 14:38:41 GMT 41.284378 2.175659 2,825 96 197 2368
2022-05-24 14:38:37 GMT 41.284882 2.169922 2,625 98 195 2368
2022-05-24 14:38:32 GMT 41.285503 2.164619 2,450 99 193 2496
2022-05-24 14:38:26 GMT 41.286388 2.158127 2,225 101 193 2432
2022-05-24 14:38:22 GMT 41.287216 2.153015 2,050 103 192 1984
2022-05-24 14:38:20 GMT 41.287693 2.150574 2,000 104 191 1728
2022-05-24 14:38:19 GMT 41.287926 2.149450 1,950 104 190 1728
2022-05-24 14:38:16 GMT 41.288857 2.144956 1,875 105 186 1408
2022-05-24 14:38:14 GMT 41.288857 2.144956 1,875 105 186 1344
2022-05-24 14:38:11 GMT 41.289597 2.141602 1,800 106 181 1152
2022-05-24 14:38:10 GMT 41.289833 2.140524 1,775 106 181 1152
2022-05-24 14:38:09 GMT 41.290192 2.138855 1,750 106 178 1088
2022-05-24 14:38:07 GMT 41.290421 2.137756 1,725 106 176 1088
2022-05-24 14:38:05 GMT 41.290905 2.135655 1,700 106 173 1024
2022-05-24 14:38:04 GMT 41.291695 2.132222 1,650 106 172 1088
2022-05-24 14:38:02 GMT 41.291695 2.132222 1,625 106 170 1088
2022-05-24 14:37:59 GMT 41.292534 2.128414 1,550 106 164 1088
2022-05-24 14:37:57 GMT 41.292767 2.127353 1,550 105 162 1024
2022-05-24 14:37:55 GMT 41.293121 2.125732 1,525 105 160 1024
2022-05-24 14:37:54 GMT 41.293350 2.124634 1,500 103 158 1088
2022-05-24 14:37:53 GMT 41.293533 2.123657 1,475 102 156 1152
2022-05-24 14:37:52 GMT 41.293854 2.121826 1,425 100 154 1152
2022-05-24 14:37:50 GMT 41.293945 2.120972 1,425 99 152 1088
2022-05-24 14:37:49 GMT 41.294083 2.119995 1,400 97 151 1088
2022-05-24 14:37:47 GMT 41.294304 2.117927 1,350 94 148 1088
2022-05-24 14:37:46 GMT 41.294350 2.117053 1,325 93 147 1088
2022-05-24 14:37:45 GMT 41.294449 2.115356 1,300 89 145 1216
2022-05-24 14:37:43 GMT 41.294441 2.114369 1,275 87 143 1408
2022-05-24 14:37:42 GMT 41.294403 2.112549 1,225 83 140 1920
2022-05-24 14:37:40 GMT 41.294220 2.110657 1,125 78 140 2368
2022-05-24 14:37:38 GMT 41.294037 2.109741 1,075 75 141 2496
2022-05-24 14:37:37 GMT 41.293808 2.108398 1,025 70 142 2560
2022-05-24 14:37:35 GMT 41.293579 2.107544 975 68 141 2624
2022-05-24 14:37:34 GMT 41.293076 2.105835 875 65 142 2752
2022-05-24 14:37:32 GMT 41.292767 2.105005 825 64 143 2752
2022-05-24 14:37:31 GMT 41.292488 2.104194 775 64 143 2752
2022-05-24 14:37:28 GMT 41.291275 2.100698 575 65 144 2816
2022-05-24 14:37:26 GMT 41.290741 2.099060 475 66 146 2816
2022-05-24 14:37:24 GMT 41.290577 2.098638 450 66 147 2752
2022-05-24 14:37:23 GMT 41.290207 2.097515 400 66 147 2624
2022-05-24 14:37:21 GMT 41.289688 2.095886 300 66 149 2624
2022-05-24 14:37:20 GMT 41.289093 2.094177 225 66 150 2304
2022-05-24 14:37:18 GMT 41.288811 2.093332 200 66 150 1984
2022-05-24 14:37:17 GMT 41.288250 2.091585 125 65 149 960
2022-05-24 14:37:15 GMT 41.287994 2.090820 100 65 148 704
2022-05-24 14:37:14 GMT 41.287460 2.089275 100 65 142 192
2022-05-24 14:37:10 GMT 41.286621 2.086853 125 65 132 0
2022-05-24 14:37:09 GMT 41.286346 2.086060 125 65 129 0
2022-05-24 14:37:08 GMT 41.285889 2.084717 125 65 121 0
2022-05-24 14:37:06 GMT 41.285690 2.084094 125 65 118 0
2022-05-24 14:37:05 GMT 41.285458 2.083407 125 65 114 0
2022-05-24 14:37:02 GMT 41.284790 2.081421 125 65 102 64
2022-05-24 14:36:55 GMT 41.283543 2.077835 0 64 72
2022-05-24 14:36:51 GMT 41.283051 2.076401 0 64 53
2022-05-24 14:36:44 GMT 41.282558 2.074980 0 67 23
2022-05-24 14:36:40 GMT 41.282455 2.074637 0 67 3
2022-05-24 14:36:24 GMT 41.282444 2.074606 0 67 0
2022-05-24 14:36:11 GMT 41.282364 2.074417 0 81 7
2022-05-24 14:36:04 GMT 41.282394 2.074091 0 132 10
2022-05-24 14:36:00 GMT 41.282513 2.073904 0 149 12
2022-05-24 14:35:54 GMT 41.282803 2.073701 0 154 10
2022-05-24 14:35:49 GMT 41.282967 2.073607 0 154 8
2022-05-24 14:35:42 GMT 41.283142 2.073498 0 157 4
2022-05-24 14:35:30 GMT 41.283222 2.073451 0 160 0
2022-05-24 14:35:26 GMT 41.283211 2.073451 0 160 0
2022-05-24 14:35:08 GMT 41.283211 2.073456 0 160 0
2022-05-24 14:34:59 GMT 41.283211 2.073451 0 160 0
2022-05-24 14:34:53 GMT 41.283257 2.073395 0 174 5
2022-05-24 14:34:49 GMT 41.283363 2.073373 0 188 8
2022-05-24 14:34:42 GMT 41.283669 2.073456 0 208 12
2022-05-24 14:34:36 GMT 41.283920 2.073654 0 233 12
2022-05-24 14:34:28 GMT 41.284164 2.074231 0 244 18
2022-05-24 14:34:24 GMT 41.284298 2.074615 0 244 21
2022-05-24 14:34:19 GMT 41.284561 2.075370 0 244 22
2022-05-24 14:34:12 GMT 41.284824 2.076141 0 244 21
2022-05-24 14:34:04 GMT 41.285118 2.076993 0 244 21
2022-05-24 14:33:59 GMT 41.285316 2.077586 0 244 20
2022-05-24 14:33:56 GMT 41.285435 2.077930 0 244 20
2022-05-24 14:33:53 GMT 41.285526 2.078195 0 244 20
2022-05-24 14:33:51 GMT 41.285614 2.078461 0 244 19
2022-05-24 14:33:46 GMT 41.285820 2.079041 0 244 19
2022-05-24 14:33:44 GMT 41.285923 2.079361 0 244 19
2022-05-24 14:33:41 GMT 41.285980 2.079529 0 244 19
2022-05-24 14:33:37 GMT 41.286179 2.080068 0 244 18
2022-05-24 14:33:35 GMT 41.286209 2.080170 0 244 18
2022-05-24 14:33:34 GMT 41.286324 2.080521 0 244 18
2022-05-24 14:33:32 GMT 41.286324 2.080521 0 244 18
2022-05-24 14:33:29 GMT 41.286392 2.080704 0 244 18
2022-05-24 14:33:28 GMT 41.286518 2.081085 0 244 18
2022-05-24 14:33:26 GMT 41.286518 2.081085 0 244 18
2022-05-24 14:33:23 GMT 41.286621 2.081379 0 244 18
2022-05-24 14:33:21 GMT 41.286690 2.081566 0 244 17
2022-05-24 14:33:20 GMT 41.286724 2.081665 0 244 17
2022-05-24 14:33:17 GMT 41.286819 2.081925 0 230 17
2022-05-24 14:33:16 GMT 41.286873 2.082016 0 219 18
2022-05-24 14:33:15 GMT 41.286922 2.082081 0 213 18
2022-05-24 14:33:13 GMT 41.287079 2.082214 0 202 18
2022-05-24 14:33:11 GMT 41.287216 2.082291 0 199 20
2022-05-24 14:33:08 GMT 41.287388 2.082362 0 199 22
2022-05-24 14:33:05 GMT 41.287697 2.082504 0 199 24
2022-05-24 14:33:04 GMT 41.287800 2.082550 0 199 24
2022-05-24 14:33:02 GMT 41.288017 2.082657 0 199 23
2022-05-24 14:33:01 GMT 41.288120 2.082703 0 199 23
2022-05-24 14:32:59 GMT 41.288296 2.082783 0 199 23
2022-05-24 14:32:57 GMT 41.288494 2.082877 0 199 23
2022-05-24 14:32:56 GMT 41.288601 2.082916 0 199 23
2022-05-24 14:32:55 GMT 41.288830 2.083023 0 199 23
2022-05-24 14:32:53 GMT 41.288914 2.083064 0 199 23
2022-05-24 14:32:52 GMT 41.289101 2.083142 0 199 23
2022-05-24 14:32:50 GMT 41.289207 2.083191 0 199 23
2022-05-24 14:32:49 GMT 41.289310 2.083237 0 199 22
2022-05-24 14:32:47 GMT 41.289497 2.083329 0 199 22
2022-05-24 14:32:46 GMT 41.289680 2.083423 0 196 22
2022-05-24 14:32:44 GMT 41.289776 2.083454 0 196 22
2022-05-24 14:32:43 GMT 41.289986 2.083557 0 196 22
2022-05-24 14:32:41 GMT 41.290089 2.083595 0 199 22
2022-05-24 14:32:40 GMT 41.290180 2.083633 0 199 22
2022-05-24 14:32:38 GMT 41.290394 2.083735 0 199 21
2022-05-24 14:32:37 GMT 41.290478 2.083771 0 199 21
2022-05-24 14:32:35 GMT 41.290672 2.083862 0 199 21
2022-05-24 14:32:33 GMT 41.290936 2.083984 0 199 21
2022-05-24 14:32:31 GMT 41.290985 2.084016 0 199 21
2022-05-24 14:32:29 GMT 41.291183 2.084094 0 199 21
2022-05-24 14:32:28 GMT 41.291359 2.084167 0 196 20
2022-05-24 14:32:26 GMT 41.291439 2.084203 0 196 20
2022-05-24 14:32:25 GMT 41.291702 2.084320 0 196 20
2022-05-24 14:32:23 GMT 41.291805 2.084366 0 199 20
2022-05-24 14:32:21 GMT 41.291897 2.084412 0 196 20
2022-05-24 14:32:19 GMT 41.292068 2.084484 0 191 20
2022-05-24 14:32:17 GMT 41.292240 2.084531 0 182 20
2022-05-24 14:32:15 GMT 41.292416 2.084531 0 168 20
2022-05-24 14:32:14 GMT 41.292500 2.084515 0 163 20
2022-05-24 14:32:12 GMT 41.292671 2.084437 0 157 20
2022-05-24 14:32:11 GMT 41.292755 2.084396 0 154 20
2022-05-24 14:32:10 GMT 41.292927 2.084290 0 154 20
2022-05-24 14:32:08 GMT 41.293011 2.084234 0 154 20
2022-05-24 14:32:06 GMT 41.293179 2.084137 0 154 20
2022-05-24 14:32:04 GMT 41.293362 2.084032 0 154 19
2022-05-24 14:32:03 GMT 41.293442 2.083985 0 154 19
2022-05-24 14:32:02 GMT 41.293522 2.083939 0 154 18
2022-05-24 14:32:00 GMT 41.293636 2.083862 0 154 17
2022-05-24 14:31:59 GMT 41.293705 2.083817 0 154 17
2022-05-24 14:31:58 GMT 41.293777 2.083766 0 154 16
2022-05-24 14:31:57 GMT 41.293930 2.083673 0 154 15
2022-05-24 14:31:54 GMT 41.294048 2.083603 0 154 15
2022-05-24 14:31:53 GMT 41.294106 2.083563 0 154 14
2022-05-24 14:31:52 GMT 41.294292 2.083470 0 154 14
2022-05-24 14:31:50 GMT 41.294292 2.083470 0 154 14
2022-05-24 14:31:49 GMT 41.294338 2.083423 0 154 13
2022-05-24 14:31:48 GMT 41.294453 2.083360 0 154 13
2022-05-24 14:31:46 GMT 41.294498 2.083329 0 154 13
2022-05-24 14:31:45 GMT 41.294617 2.083267 0 154 13
2022-05-24 14:31:43 GMT 41.294662 2.083236 0 154 13
2022-05-24 14:31:42 GMT 41.294769 2.083176 0 154 13
2022-05-24 14:31:40 GMT 41.294827 2.083145 0 154 13
2022-05-24 14:31:39 GMT 41.294930 2.083084 0 154 13
2022-05-24 14:31:36 GMT 41.294987 2.083054 0 154 13
2022-05-24 14:31:35 GMT 41.295036 2.083017 0 154 13
2022-05-24 14:31:33 GMT 41.295139 2.082939 0 154 13
2022-05-24 14:31:32 GMT 41.295197 2.082908 0 151 13
2022-05-24 14:31:30 GMT 41.295326 2.082830 0 146 13
2022-05-24 14:31:29 GMT 41.295376 2.082794 0 143 14
2022-05-24 14:31:27 GMT 41.295479 2.082721 0 132 14
2022-05-24 14:31:26 GMT 41.295525 2.082658 0 123 14
2022-05-24 14:31:24 GMT 41.295605 2.082520 0 106 14
2022-05-24 14:31:23 GMT 41.295628 2.082440 0 98 14
2022-05-24 14:31:21 GMT 41.295666 2.082268 0 81 14
2022-05-24 14:31:20 GMT 41.295666 2.082190 0 75 14
2022-05-24 14:31:18 GMT 41.295628 2.082018 0 67 14
2022-05-24 14:31:17 GMT 41.295582 2.081862 0 67 14
2022-05-24 14:31:15 GMT 41.295559 2.081772 0 64 14
2022-05-24 14:31:14 GMT 41.295536 2.081706 0 64 14
2022-05-24 14:31:12 GMT 41.295479 2.081535 0 67 14
2022-05-24 14:31:11 GMT 41.295422 2.081375 0 64 14
2022-05-24 14:31:09 GMT 41.295395 2.081316 0 64 14
2022-05-24 14:31:08 GMT 41.295353 2.081161 0 64 14
2022-05-24 14:31:05 GMT 41.295292 2.081004 0 64 14
2022-05-24 14:31:04 GMT 41.295269 2.080942 0 64 14
2022-05-24 14:31:03 GMT 41.295246 2.080864 0 67 14
2022-05-24 14:31:01 GMT 41.295193 2.080719 0 67 14
2022-05-24 14:31:00 GMT 41.295170 2.080627 0 64 14
2022-05-24 14:30:59 GMT 41.295116 2.080473 0 64 14
2022-05-24 14:30:57 GMT 41.295090 2.080414 0 64 14
2022-05-24 14:30:55 GMT 41.295013 2.080177 0 64 14
2022-05-24 14:30:53 GMT 41.294952 2.080021 0 67 13
2022-05-24 14:30:51 GMT 41.294930 2.079943 0 67 13
2022-05-24 14:30:49 GMT 41.294884 2.079819 0 67 13
2022-05-24 14:30:48 GMT 41.294861 2.079740 0 67 13
2022-05-24 14:30:47 GMT 41.294781 2.079514 0 64 13
2022-05-24 14:30:45 GMT 41.294781 2.079514 0 64 13
2022-05-24 14:30:43 GMT 41.294743 2.079381 0 64 13
2022-05-24 14:30:38 GMT 41.294628 2.079069 0 64 13
2022-05-24 14:30:35 GMT 41.294552 2.078842 0 64 13
2022-05-24 14:30:30 GMT 41.294449 2.078537 0 64 13
2022-05-24 14:30:28 GMT 41.294418 2.078460 0 67 13
2022-05-24 14:30:27 GMT 41.294384 2.078336 0 67 12
2022-05-24 14:30:25 GMT 41.294334 2.078201 0 67 12
2022-05-24 14:30:23 GMT 41.294300 2.078079 0 64 12
2022-05-24 14:30:21 GMT 41.294266 2.077977 0 64 12
2022-05-24 14:30:20 GMT 41.294231 2.077867 0 64 12
2022-05-24 14:30:18 GMT 41.294197 2.077774 0 64 12
2022-05-24 14:30:17 GMT 41.294140 2.077618 0 64 12
2022-05-24 14:30:16 GMT 41.294140 2.077618 0 64 12
2022-05-24 14:30:13 GMT 41.294060 2.077393 0 67 12
2022-05-24 14:30:11 GMT 41.294025 2.077286 0 67 12
2022-05-24 14:30:07 GMT 41.293957 2.077072 0 67 12
2022-05-24 14:30:06 GMT 41.293919 2.076978 0 67 12
2022-05-24 14:30:05 GMT 41.293896 2.076900 0 67 12
2022-05-24 14:30:02 GMT 41.293839 2.076697 0 67 11
2022-05-24 14:29:58 GMT 41.293751 2.076431 0 340 10
2022-05-24 14:29:54 GMT 41.293686 2.076229 0 19 11
2022-05-24 14:29:47 GMT 41.293499 2.075807 0 19 11
2022-05-24 14:29:44 GMT 41.293369 2.075729 0 354 10
2022-05-24 14:29:39 GMT 41.293186 2.075745 0 337 10
2022-05-24 14:29:35 GMT 41.293034 2.075839 0 334 9
2022-05-24 14:29:34 GMT 41.292976 2.075870 0 334 10
2022-05-24 14:29:30 GMT 41.292789 2.075979 0 337 12
2022-05-24 14:29:28 GMT 41.292709 2.076026 0 334 11
2022-05-24 14:29:23 GMT 41.292324 2.076260 0 334 11
2022-05-24 14:29:20 GMT 41.292324 2.076260 0 334 11
2022-05-24 14:29:15 GMT 41.292103 2.076400 0 331 10
2022-05-24 14:29:13 GMT 41.292023 2.076447 0 329 10
2022-05-24 14:29:10 GMT 41.291870 2.076556 0 312 10
2022-05-24 14:29:05 GMT 41.291725 2.076752 0 286 9
2022-05-24 14:29:04 GMT 41.291691 2.076859 0 275 9
2022-05-24 14:29:00 GMT 41.291668 2.077011 0 264 8
2022-05-24 14:28:58 GMT 41.291668 2.077103 0 258 8
2022-05-24 14:28:54 GMT 41.291683 2.077274 0 247 8
2022-05-24 14:28:52 GMT 41.291706 2.077368 0 244 8
2022-05-24 14:28:48 GMT 41.291771 2.077530 0 244 7
2022-05-24 14:28:47 GMT 41.291779 2.077571 0 244 7
2022-05-24 14:28:46 GMT 41.291817 2.077682 0 244 7
2022-05-24 14:28:44 GMT 41.291817 2.077682 0 244 7
2022-05-24 14:28:36 GMT 41.291908 2.077927 0 247 5
2022-05-24 14:26:47 GMT 41.291931 2.078064 0 250 0
2022-05-24 14:24:41 GMT 41.291943 2.078064 0 250 0
2022-05-24 14:24:09 GMT 41.291939 2.078055 0 250 0
2022-05-24 14:24:06 GMT 41.291939 2.078039 0 250 1
2022-05-24 14:24:05 GMT 41.291939 2.078023 0 247 2
2022-05-24 14:24:03 GMT 41.291927 2.078008 0 247 2
2022-05-24 14:24:01 GMT 41.291931 2.078003 0 247 2
2022-05-24 14:23:56 GMT 41.291916 2.077961 0 247 2
2022-05-24 14:23:45 GMT 41.291893 2.077836 0 253 2
2022-05-24 14:23:40 GMT 41.291882 2.077774 0 239 3
2022-05-24 14:23:32 GMT 41.291824 2.077696 0 239 3
2022-05-24 14:23:27 GMT 41.291786 2.077680 0 230 3
2022-05-24 14:23:25 GMT 41.291763 2.077664 0 225 3
2022-05-24 14:23:24 GMT 41.291759 2.077667 0 222 3
2022-05-24 14:23:22 GMT 41.291729 2.077664 0 213 3
2022-05-24 14:23:21 GMT 41.291725 2.077667 0 210 3
2022-05-24 14:23:16 GMT 41.291672 2.077680 0 199 3
2022-05-24 14:23:12 GMT 41.291626 2.077696 0 191 3
2022-05-24 14:23:11 GMT 41.291622 2.077698 0 188 3
2022-05-24 14:23:08 GMT 41.291588 2.077713 0 182 3
2022-05-24 14:23:06 GMT 41.291569 2.077711 0 180 3
2022-05-24 14:22:59 GMT 41.291496 2.077744 0 174 3
2022-05-24 14:22:51 GMT 41.291416 2.077759 0 168 3
2022-05-24 14:22:45 GMT 41.291359 2.077789 0 168 3
2022-05-24 14:22:44 GMT 41.291348 2.077789 0 165 3
2022-05-24 14:22:41 GMT 41.291309 2.077805 0 163 3
2022-05-24 14:22:32 GMT 41.291229 2.077852 0 163 3
2022-05-24 14:22:30 GMT 41.291206 2.077867 0 160 3
2022-05-24 14:22:23 GMT 41.291142 2.077911 0 157 3
2022-05-24 14:22:19 GMT 41.291103 2.077930 0 157 2
2022-05-24 14:22:18 GMT 41.291096 2.077927 0 157 2
2022-05-24 14:22:17 GMT 41.291073 2.077942 0 157 2
2022-05-24 14:22:15 GMT 41.291065 2.077945 0 157 2
2022-05-24 14:22:14 GMT 41.291050 2.077957 0 157 2
2022-05-24 14:22:12 GMT 41.291039 2.077972 0 154 2
2022-05-24 14:22:06 GMT 41.290997 2.077992 0 154 0
2022-05-24 14:22:02 GMT 41.290962 2.078008 0 154 0
2022-05-24 14:21:57 GMT 41.290947 2.078018 0 154 0
2022-05-24 14:21:46 GMT 41.290951 2.078008 0 154 0
2022-05-24 14:21:42 GMT 41.290962 2.077992 0 154 0
2022-05-24 14:21:37 GMT 41.290951 2.077977 0 154 0
2022-05-24 14:21:32 GMT 41.290947 2.077972 0 154 0
2022-05-24 14:21:22 GMT 41.290951 2.077977 0 154 0
2022-05-24 14:21:17 GMT 41.290947 2.077988 0 154 0
2022-05-24 14:21:12 GMT 41.290951 2.077992 0 154 0
2022-05-24 14:21:02 GMT 41.290951 2.078023 0 154 0
2022-05-24 14:20:57 GMT 41.290962 2.078023 0 154 0
2022-05-24 14:20:52 GMT 41.290951 2.078023 0 154 0
2022-05-24 14:20:47 GMT 41.290947 2.078018 0 154 0
2022-05-24 14:20:41 GMT 41.290936 2.078018 0 154 0
2022-05-24 14:20:36 GMT 41.290939 2.078023 0 154 0
2022-05-24 14:20:31 GMT 41.290939 2.078008 0 154 0
2022-05-24 14:20:27 GMT 41.290928 2.078008 0 154 0
2022-05-24 14:20:21 GMT 41.290928 2.077992 0 154 0
2022-05-24 14:20:12 GMT 41.290924 2.077988 0 154 0
2022-05-24 14:20:02 GMT 41.290913 2.077988 0 154 0
2022-05-24 14:19:57 GMT 41.290913 2.078003 0 154 0
2022-05-24 14:19:52 GMT 41.290905 2.078008 0 154 0
2022-05-24 14:19:42 GMT 41.290913 2.078033 0 154 0
2022-05-24 14:19:37 GMT 41.290916 2.078055 0 154 0
2022-05-24 14:19:31 GMT 41.290924 2.078049 0 154 0
2022-05-24 14:19:26 GMT 41.290924 2.078064 0 154 0
2022-05-24 14:19:12 GMT 41.290928 2.078055 0 154 0
2022-05-24 14:19:06 GMT 41.290936 2.078049 0 154 0

Making use of Plane Finder data

You are free to use the raw flight data, aircraft information and images provided in this report for your own purposes provided the data is correctly attributed to Plane Finder. We ask that you please credit Plane Finder and link to planefinder.net in close proximity to the content.

Optionally one of the following logos (no smaller then 150x24px) can be used and must link to planefinder.net

Embedding the Plane Finder map

You are welcome to embed the Plane Finder playback map on your website to offer visitors a more interactive experience. We suggest using the following HTML code:

<iframe src="//planefinder.net/data/report/VY2121-EC-MAI-7700-squawk-2022-05-24/map" width="800" height="600" seamless="seamless"></iframe>

Where our data comes from

Plane Finder has a global network of data feeds and antenna radars that receive data broadcast directly from aircraft. The primary technologies used are ADS-B and MLAT. We also show feeds from the FAA and a FLARM glider feed.

Click here to find out more about the Plane Finder network.

How we collect our data